<?xml version="1.0" encoding="UTF-8" standalone="no" ?>
<gpx xmlns="http://www.topografix.com/GPX/1/1" xmlns:xsi="http://www.w3.org/2001/XMLSchema-instance" xsi:schemaLocation="http://www.topografix.com/GPX/1/1 http://www.topografix.com/GPX/1/1/gpx.xsd" version="1.1" creator="VisuGPX - https://www.visugpx.com">
  <metadata>
    <name>Dernière de 2015</name>
    <desc><![CDATA[dernière sortie de 2015, en solo...]]></desc>
  </metadata>
  <trk>
    <name><![CDATA[SESSION VTT]]></name>
    <trkseg>
      <trkpt lat="50.12456" lon="3.67815">
        <ele>138.09</ele>
        <time>2015-11-01T08:58:28Z</time>
      </trkpt>
      <trkpt lat="50.12456" lon="3.67815">
        <ele>138.09</ele>
        <time>2015-11-01T08:58:29Z</time>
      </trkpt>
      <trkpt lat="50.12457" lon="3.67815">
        <ele>138.09</ele>
        <time>2015-11-01T08:58:44Z</time>
      </trkpt>
      <trkpt lat="50.12466" lon="3.67814">
        <ele>138.09</ele>
        <time>2015-11-01T08:58:49Z</time>
      </trkpt>
      <trkpt lat="50.12482" lon="3.67814">
        <ele>138.57</ele>
        <time>2015-11-01T08:58:57Z</time>
      </trkpt>
      <trkpt lat="50.1251" lon="3.67843">
        <ele>139.05</ele>
        <time>2015-11-01T08:59:07Z</time>
      </trkpt>
      <trkpt lat="50.12544" lon="3.6788">
        <ele>139.05</ele>
        <time>2015-11-01T08:59:17Z</time>
      </trkpt>
      <trkpt lat="50.12548" lon="3.67883">
        <ele>139.05</ele>
        <time>2015-11-01T08:59:18Z</time>
      </trkpt>
      <trkpt lat="50.12567" lon="3.67895">
        <ele>139.05</ele>
        <time>2015-11-01T08:59:23Z</time>
      </trkpt>
      <trkpt lat="50.1257" lon="3.67899">
        <ele>139.05</ele>
        <time>2015-11-01T08:59:24Z</time>
      </trkpt>
      <trkpt lat="50.12618" lon="3.67982">
        <ele>139.05</ele>
        <time>2015-11-01T08:59:41Z</time>
      </trkpt>
      <trkpt lat="50.12623" lon="3.67993">
        <ele>139.05</ele>
        <time>2015-11-01T08:59:43Z</time>
      </trkpt>
      <trkpt lat="50.12626" lon="3.67999">
        <ele>139.05</ele>
        <time>2015-11-01T08:59:44Z</time>
      </trkpt>
      <trkpt lat="50.12646" lon="3.68038">
        <ele>139.05</ele>
        <time>2015-11-01T08:59:51Z</time>
      </trkpt>
      <trkpt lat="50.12695" lon="3.68144">
        <ele>139.05</ele>
        <time>2015-11-01T09:00:10Z</time>
      </trkpt>
      <trkpt lat="50.12729" lon="3.68225">
        <ele>139.53</ele>
        <time>2015-11-01T09:00:26Z</time>
      </trkpt>
      <trkpt lat="50.12737" lon="3.68252">
        <ele>139.53</ele>
        <time>2015-11-01T09:00:36Z</time>
      </trkpt>
      <trkpt lat="50.12738" lon="3.68256">
        <ele>139.53</ele>
        <time>2015-11-01T09:01:02Z</time>
      </trkpt>
      <trkpt lat="50.12739" lon="3.68259">
        <ele>139.53</ele>
        <time>2015-11-01T09:01:03Z</time>
      </trkpt>
      <trkpt lat="50.12741" lon="3.68263">
        <ele>139.53</ele>
        <time>2015-11-01T09:01:04Z</time>
      </trkpt>
      <trkpt lat="50.12769" lon="3.68346">
        <ele>139.53</ele>
        <time>2015-11-01T09:01:19Z</time>
      </trkpt>
      <trkpt lat="50.12799" lon="3.68434">
        <ele>140.49</ele>
        <time>2015-11-01T09:01:36Z</time>
      </trkpt>
      <trkpt lat="50.12802" lon="3.68438">
        <ele>140.49</ele>
        <time>2015-11-01T09:01:37Z</time>
      </trkpt>
      <trkpt lat="50.12806" lon="3.6844">
        <ele>140.49</ele>
        <time>2015-11-01T09:01:38Z</time>
      </trkpt>
      <trkpt lat="50.12809" lon="3.68439">
        <ele>140.49</ele>
        <time>2015-11-01T09:01:39Z</time>
      </trkpt>
      <trkpt lat="50.12812" lon="3.68438">
        <ele>140.49</ele>
        <time>2015-11-01T09:01:40Z</time>
      </trkpt>
      <trkpt lat="50.12816" lon="3.68436">
        <ele>140.97</ele>
        <time>2015-11-01T09:01:41Z</time>
      </trkpt>
      <trkpt lat="50.12819" lon="3.68433">
        <ele>140.97</ele>
        <time>2015-11-01T09:01:42Z</time>
      </trkpt>
      <trkpt lat="50.12822" lon="3.6843">
        <ele>140.97</ele>
        <time>2015-11-01T09:01:43Z</time>
      </trkpt>
      <trkpt lat="50.12826" lon="3.68428">
        <ele>140.97</ele>
        <time>2015-11-01T09:01:44Z</time>
      </trkpt>
      <trkpt lat="50.12856" lon="3.6839">
        <ele>141.93</ele>
        <time>2015-11-01T09:01:55Z</time>
      </trkpt>
      <trkpt lat="50.1286" lon="3.68391">
        <ele>142.41</ele>
        <time>2015-11-01T09:01:56Z</time>
      </trkpt>
      <trkpt lat="50.12863" lon="3.68394">
        <ele>142.89</ele>
        <time>2015-11-01T09:01:57Z</time>
      </trkpt>
      <trkpt lat="50.12865" lon="3.68396">
        <ele>142.89</ele>
        <time>2015-11-01T09:01:58Z</time>
      </trkpt>
      <trkpt lat="50.12868" lon="3.684">
        <ele>142.89</ele>
        <time>2015-11-01T09:01:59Z</time>
      </trkpt>
      <trkpt lat="50.1287" lon="3.68405">
        <ele>142.89</ele>
        <time>2015-11-01T09:02:00Z</time>
      </trkpt>
      <trkpt lat="50.12898" lon="3.68484">
        <ele>143.85</ele>
        <time>2015-11-01T09:02:16Z</time>
      </trkpt>
      <trkpt lat="50.12933" lon="3.68593">
        <ele>143.85</ele>
        <time>2015-11-01T09:02:36Z</time>
      </trkpt>
      <trkpt lat="50.12943" lon="3.6863">
        <ele>142.41</ele>
        <time>2015-11-01T09:02:42Z</time>
      </trkpt>
      <trkpt lat="50.12943" lon="3.68637">
        <ele>142.41</ele>
        <time>2015-11-01T09:02:43Z</time>
      </trkpt>
      <trkpt lat="50.12942" lon="3.68642">
        <ele>142.41</ele>
        <time>2015-11-01T09:02:44Z</time>
      </trkpt>
      <trkpt lat="50.12939" lon="3.68648">
        <ele>142.41</ele>
        <time>2015-11-01T09:02:45Z</time>
      </trkpt>
      <trkpt lat="50.12936" lon="3.68652">
        <ele>141.93</ele>
        <time>2015-11-01T09:02:46Z</time>
      </trkpt>
      <trkpt lat="50.12933" lon="3.68657">
        <ele>141.93</ele>
        <time>2015-11-01T09:02:47Z</time>
      </trkpt>
      <trkpt lat="50.12892" lon="3.68709">
        <ele>140.49</ele>
        <time>2015-11-01T09:02:58Z</time>
      </trkpt>
      <trkpt lat="50.12887" lon="3.68711">
        <ele>140.49</ele>
        <time>2015-11-01T09:02:59Z</time>
      </trkpt>
      <trkpt lat="50.1288" lon="3.6871">
        <ele>140.01</ele>
        <time>2015-11-01T09:03:00Z</time>
      </trkpt>
      <trkpt lat="50.12877" lon="3.68707">
        <ele>140.01</ele>
        <time>2015-11-01T09:03:01Z</time>
      </trkpt>
      <trkpt lat="50.12872" lon="3.68701">
        <ele>140.01</ele>
        <time>2015-11-01T09:03:02Z</time>
      </trkpt>
      <trkpt lat="50.12869" lon="3.68695">
        <ele>140.01</ele>
        <time>2015-11-01T09:03:03Z</time>
      </trkpt>
      <trkpt lat="50.12861" lon="3.68684">
        <ele>139.53</ele>
        <time>2015-11-01T09:03:05Z</time>
      </trkpt>
      <trkpt lat="50.12857" lon="3.68679">
        <ele>139.53</ele>
        <time>2015-11-01T09:03:06Z</time>
      </trkpt>
      <trkpt lat="50.1281" lon="3.68617">
        <ele>139.53</ele>
        <time>2015-11-01T09:03:20Z</time>
      </trkpt>
      <trkpt lat="50.12809" lon="3.6861">
        <ele>139.53</ele>
        <time>2015-11-01T09:03:21Z</time>
      </trkpt>
      <trkpt lat="50.12809" lon="3.68601">
        <ele>139.53</ele>
        <time>2015-11-01T09:03:22Z</time>
      </trkpt>
      <trkpt lat="50.1281" lon="3.68596">
        <ele>139.53</ele>
        <time>2015-11-01T09:03:23Z</time>
      </trkpt>
      <trkpt lat="50.12812" lon="3.68589">
        <ele>139.53</ele>
        <time>2015-11-01T09:03:24Z</time>
      </trkpt>
      <trkpt lat="50.12829" lon="3.68514">
        <ele>142.89</ele>
        <time>2015-11-01T09:03:35Z</time>
      </trkpt>
      <trkpt lat="50.12847" lon="3.68433">
        <ele>146.26</ele>
        <time>2015-11-01T09:03:47Z</time>
      </trkpt>
      <trkpt lat="50.12875" lon="3.68374">
        <ele>149.14</ele>
        <time>2015-11-01T09:04:00Z</time>
      </trkpt>
      <trkpt lat="50.12915" lon="3.68334">
        <ele>150.1</ele>
        <time>2015-11-01T09:04:13Z</time>
      </trkpt>
      <trkpt lat="50.12939" lon="3.68321">
        <ele>148.66</ele>
        <time>2015-11-01T09:04:18Z</time>
      </trkpt>
      <trkpt lat="50.12964" lon="3.68314">
        <ele>147.22</ele>
        <time>2015-11-01T09:04:22Z</time>
      </trkpt>
      <trkpt lat="50.1297" lon="3.68314">
        <ele>147.22</ele>
        <time>2015-11-01T09:04:23Z</time>
      </trkpt>
      <trkpt lat="50.12975" lon="3.68314">
        <ele>147.22</ele>
        <time>2015-11-01T09:04:24Z</time>
      </trkpt>
      <trkpt lat="50.12981" lon="3.68313">
        <ele>147.22</ele>
        <time>2015-11-01T09:04:25Z</time>
      </trkpt>
      <trkpt lat="50.12987" lon="3.6831">
        <ele>147.22</ele>
        <time>2015-11-01T09:04:26Z</time>
      </trkpt>
      <trkpt lat="50.12992" lon="3.68309">
        <ele>147.22</ele>
        <time>2015-11-01T09:04:27Z</time>
      </trkpt>
      <trkpt lat="50.13024" lon="3.68299">
        <ele>149.14</ele>
        <time>2015-11-01T09:04:34Z</time>
      </trkpt>
      <trkpt lat="50.13064" lon="3.68284">
        <ele>152.03</ele>
        <time>2015-11-01T09:04:45Z</time>
      </trkpt>
      <trkpt lat="50.13112" lon="3.68264">
        <ele>155.39</ele>
        <time>2015-11-01T09:05:01Z</time>
      </trkpt>
      <trkpt lat="50.13157" lon="3.68233">
        <ele>158.27</ele>
        <time>2015-11-01T09:05:16Z</time>
      </trkpt>
      <trkpt lat="50.13198" lon="3.68191">
        <ele>160.68</ele>
        <time>2015-11-01T09:05:32Z</time>
      </trkpt>
      <trkpt lat="50.13248" lon="3.68139">
        <ele>163.56</ele>
        <time>2015-11-01T09:05:51Z</time>
      </trkpt>
      <trkpt lat="50.13302" lon="3.68084">
        <ele>165.48</ele>
        <time>2015-11-01T09:06:10Z</time>
      </trkpt>
      <trkpt lat="50.13347" lon="3.68037">
        <ele>167.89</ele>
        <time>2015-11-01T09:06:25Z</time>
      </trkpt>
      <trkpt lat="50.1341" lon="3.67978">
        <ele>167.89</ele>
        <time>2015-11-01T09:06:45Z</time>
      </trkpt>
      <trkpt lat="50.13486" lon="3.6796">
        <ele>168.85</ele>
        <time>2015-11-01T09:07:03Z</time>
      </trkpt>
      <trkpt lat="50.13571" lon="3.67932">
        <ele>169.81</ele>
        <time>2015-11-01T09:07:24Z</time>
      </trkpt>
      <trkpt lat="50.13578" lon="3.67927">
        <ele>169.81</ele>
        <time>2015-11-01T09:07:26Z</time>
      </trkpt>
      <trkpt lat="50.13582" lon="3.67924">
        <ele>169.81</ele>
        <time>2015-11-01T09:07:27Z</time>
      </trkpt>
      <trkpt lat="50.13587" lon="3.67922">
        <ele>169.81</ele>
        <time>2015-11-01T09:07:28Z</time>
      </trkpt>
      <trkpt lat="50.13591" lon="3.67921">
        <ele>169.81</ele>
        <time>2015-11-01T09:07:29Z</time>
      </trkpt>
      <trkpt lat="50.13595" lon="3.67922">
        <ele>169.81</ele>
        <time>2015-11-01T09:07:30Z</time>
      </trkpt>
      <trkpt lat="50.136" lon="3.67922">
        <ele>169.81</ele>
        <time>2015-11-01T09:07:31Z</time>
      </trkpt>
      <trkpt lat="50.13605" lon="3.67923">
        <ele>169.81</ele>
        <time>2015-11-01T09:07:32Z</time>
      </trkpt>
      <trkpt lat="50.1361" lon="3.67923">
        <ele>169.81</ele>
        <time>2015-11-01T09:07:33Z</time>
      </trkpt>
      <trkpt lat="50.13615" lon="3.67922">
        <ele>169.81</ele>
        <time>2015-11-01T09:07:34Z</time>
      </trkpt>
      <trkpt lat="50.13672" lon="3.67899">
        <ele>168.37</ele>
        <time>2015-11-01T09:07:45Z</time>
      </trkpt>
      <trkpt lat="50.13746" lon="3.67869">
        <ele>168.37</ele>
        <time>2015-11-01T09:08:02Z</time>
      </trkpt>
      <trkpt lat="50.13795" lon="3.67851">
        <ele>168.37</ele>
        <time>2015-11-01T09:08:14Z</time>
      </trkpt>
      <trkpt lat="50.13798" lon="3.67849">
        <ele>168.37</ele>
        <time>2015-11-01T09:08:15Z</time>
      </trkpt>
      <trkpt lat="50.13872" lon="3.67823">
        <ele>168.37</ele>
        <time>2015-11-01T09:08:33Z</time>
      </trkpt>
      <trkpt lat="50.13897" lon="3.67824">
        <ele>168.37</ele>
        <time>2015-11-01T09:08:39Z</time>
      </trkpt>
      <trkpt lat="50.13913" lon="3.67827">
        <ele>169.81</ele>
        <time>2015-11-01T09:08:43Z</time>
      </trkpt>
      <trkpt lat="50.13917" lon="3.67828">
        <ele>169.33</ele>
        <time>2015-11-01T09:08:44Z</time>
      </trkpt>
      <trkpt lat="50.13964" lon="3.67829">
        <ele>166.45</ele>
        <time>2015-11-01T09:08:56Z</time>
      </trkpt>
      <trkpt lat="50.13968" lon="3.67828">
        <ele>172.21</ele>
        <time>2015-11-01T09:08:57Z</time>
      </trkpt>
      <trkpt lat="50.1402" lon="3.67808">
        <ele>168.85</ele>
        <time>2015-11-01T09:09:09Z</time>
      </trkpt>
      <trkpt lat="50.14089" lon="3.67772">
        <ele>167.41</ele>
        <time>2015-11-01T09:09:24Z</time>
      </trkpt>
      <trkpt lat="50.14165" lon="3.67696">
        <ele>165.96</ele>
        <time>2015-11-01T09:09:40Z</time>
      </trkpt>
      <trkpt lat="50.14174" lon="3.67686">
        <ele>165.96</ele>
        <time>2015-11-01T09:09:42Z</time>
      </trkpt>
      <trkpt lat="50.14179" lon="3.67681">
        <ele>165.48</ele>
        <time>2015-11-01T09:09:43Z</time>
      </trkpt>
      <trkpt lat="50.14223" lon="3.6763">
        <ele>165.48</ele>
        <time>2015-11-01T09:09:54Z</time>
      </trkpt>
      <trkpt lat="50.14227" lon="3.67627">
        <ele>165.48</ele>
        <time>2015-11-01T09:09:55Z</time>
      </trkpt>
      <trkpt lat="50.1423" lon="3.67625">
        <ele>165.48</ele>
        <time>2015-11-01T09:09:56Z</time>
      </trkpt>
      <trkpt lat="50.14234" lon="3.67626">
        <ele>165.48</ele>
        <time>2015-11-01T09:09:57Z</time>
      </trkpt>
      <trkpt lat="50.14237" lon="3.67627">
        <ele>165.48</ele>
        <time>2015-11-01T09:09:58Z</time>
      </trkpt>
      <trkpt lat="50.14238" lon="3.6763">
        <ele>165.48</ele>
        <time>2015-11-01T09:09:59Z</time>
      </trkpt>
      <trkpt lat="50.1424" lon="3.67632">
        <ele>165.48</ele>
        <time>2015-11-01T09:10:00Z</time>
      </trkpt>
      <trkpt lat="50.1424" lon="3.67634">
        <ele>165.48</ele>
        <time>2015-11-01T09:10:01Z</time>
      </trkpt>
      <trkpt lat="50.14239" lon="3.67636">
        <ele>165.48</ele>
        <time>2015-11-01T09:10:02Z</time>
      </trkpt>
      <trkpt lat="50.14239" lon="3.67638">
        <ele>165.48</ele>
        <time>2015-11-01T09:10:03Z</time>
      </trkpt>
      <trkpt lat="50.14239" lon="3.67642">
        <ele>165.96</ele>
        <time>2015-11-01T09:10:17Z</time>
      </trkpt>
      <trkpt lat="50.14238" lon="3.67642">
        <ele>169.33</ele>
        <time>2015-11-01T09:10:29Z</time>
      </trkpt>
      <trkpt lat="50.14238" lon="3.67641">
        <ele>165.48</ele>
        <time>2015-11-01T09:10:30Z</time>
      </trkpt>
      <trkpt lat="50.14243" lon="3.67641">
        <ele>165.48</ele>
        <time>2015-11-01T09:10:59Z</time>
      </trkpt>
      <trkpt lat="50.14241" lon="3.67643">
        <ele>165.48</ele>
        <time>2015-11-01T09:11:24Z</time>
      </trkpt>
      <trkpt lat="50.14243" lon="3.67643">
        <ele>165.48</ele>
        <time>2015-11-01T09:11:25Z</time>
      </trkpt>
      <trkpt lat="50.14244" lon="3.67641">
        <ele>165.48</ele>
        <time>2015-11-01T09:11:26Z</time>
      </trkpt>
      <trkpt lat="50.14245" lon="3.6764">
        <ele>165.48</ele>
        <time>2015-11-01T09:11:27Z</time>
      </trkpt>
      <trkpt lat="50.14246" lon="3.67638">
        <ele>165.48</ele>
        <time>2015-11-01T09:11:28Z</time>
      </trkpt>
      <trkpt lat="50.14247" lon="3.67637">
        <ele>165.48</ele>
        <time>2015-11-01T09:11:29Z</time>
      </trkpt>
      <trkpt lat="50.14255" lon="3.67624">
        <ele>165.48</ele>
        <time>2015-11-01T09:11:36Z</time>
      </trkpt>
      <trkpt lat="50.14259" lon="3.67623">
        <ele>165.48</ele>
        <time>2015-11-01T09:11:37Z</time>
      </trkpt>
      <trkpt lat="50.14262" lon="3.67623">
        <ele>165.48</ele>
        <time>2015-11-01T09:11:38Z</time>
      </trkpt>
      <trkpt lat="50.14266" lon="3.67624">
        <ele>165.48</ele>
        <time>2015-11-01T09:11:39Z</time>
      </trkpt>
      <trkpt lat="50.1427" lon="3.67625">
        <ele>165.48</ele>
        <time>2015-11-01T09:11:40Z</time>
      </trkpt>
      <trkpt lat="50.14274" lon="3.67626">
        <ele>165.48</ele>
        <time>2015-11-01T09:11:41Z</time>
      </trkpt>
      <trkpt lat="50.14295" lon="3.6763">
        <ele>166.93</ele>
        <time>2015-11-01T09:11:46Z</time>
      </trkpt>
      <trkpt lat="50.14335" lon="3.67638">
        <ele>168.37</ele>
        <time>2015-11-01T09:11:57Z</time>
      </trkpt>
      <trkpt lat="50.14389" lon="3.67648">
        <ele>170.29</ele>
        <time>2015-11-01T09:12:13Z</time>
      </trkpt>
      <trkpt lat="50.14434" lon="3.67656">
        <ele>171.73</ele>
        <time>2015-11-01T09:12:27Z</time>
      </trkpt>
      <trkpt lat="50.14476" lon="3.67665">
        <ele>172.21</ele>
        <time>2015-11-01T09:12:40Z</time>
      </trkpt>
      <trkpt lat="50.14526" lon="3.67674">
        <ele>171.25</ele>
        <time>2015-11-01T09:12:54Z</time>
      </trkpt>
      <trkpt lat="50.14567" lon="3.67681">
        <ele>169.81</ele>
        <time>2015-11-01T09:13:04Z</time>
      </trkpt>
      <trkpt lat="50.14582" lon="3.67683">
        <ele>169.81</ele>
        <time>2015-11-01T09:13:07Z</time>
      </trkpt>
      <trkpt lat="50.14655" lon="3.67696">
        <ele>168.37</ele>
        <time>2015-11-01T09:13:22Z</time>
      </trkpt>
      <trkpt lat="50.14707" lon="3.67708">
        <ele>168.37</ele>
        <time>2015-11-01T09:13:36Z</time>
      </trkpt>
      <trkpt lat="50.1474" lon="3.67715">
        <ele>168.37</ele>
        <time>2015-11-01T09:13:47Z</time>
      </trkpt>
      <trkpt lat="50.14774" lon="3.67722">
        <ele>169.33</ele>
        <time>2015-11-01T09:14:00Z</time>
      </trkpt>
      <trkpt lat="50.1481" lon="3.67731">
        <ele>169.33</ele>
        <time>2015-11-01T09:14:12Z</time>
      </trkpt>
      <trkpt lat="50.14849" lon="3.6774">
        <ele>169.33</ele>
        <time>2015-11-01T09:14:24Z</time>
      </trkpt>
      <trkpt lat="50.14889" lon="3.67745">
        <ele>167.89</ele>
        <time>2015-11-01T09:14:36Z</time>
      </trkpt>
      <trkpt lat="50.14928" lon="3.67752">
        <ele>167.41</ele>
        <time>2015-11-01T09:14:47Z</time>
      </trkpt>
      <trkpt lat="50.14984" lon="3.67763">
        <ele>165</ele>
        <time>2015-11-01T09:14:59Z</time>
      </trkpt>
      <trkpt lat="50.14989" lon="3.67764">
        <ele>165</ele>
        <time>2015-11-01T09:15:00Z</time>
      </trkpt>
      <trkpt lat="50.15064" lon="3.67778">
        <ele>163.08</ele>
        <time>2015-11-01T09:15:13Z</time>
      </trkpt>
      <trkpt lat="50.1507" lon="3.67779">
        <ele>163.08</ele>
        <time>2015-11-01T09:15:14Z</time>
      </trkpt>
      <trkpt lat="50.15075" lon="3.6778">
        <ele>163.08</ele>
        <time>2015-11-01T09:15:15Z</time>
      </trkpt>
      <trkpt lat="50.15153" lon="3.67796">
        <ele>164.52</ele>
        <time>2015-11-01T09:15:31Z</time>
      </trkpt>
      <trkpt lat="50.15209" lon="3.67807">
        <ele>166.45</ele>
        <time>2015-11-01T09:15:46Z</time>
      </trkpt>
      <trkpt lat="50.15258" lon="3.67818">
        <ele>167.41</ele>
        <time>2015-11-01T09:16:00Z</time>
      </trkpt>
      <trkpt lat="50.15314" lon="3.67828">
        <ele>168.37</ele>
        <time>2015-11-01T09:16:15Z</time>
      </trkpt>
      <trkpt lat="50.15358" lon="3.67834">
        <ele>168.37</ele>
        <time>2015-11-01T09:16:29Z</time>
      </trkpt>
      <trkpt lat="50.15397" lon="3.67843">
        <ele>168.37</ele>
        <time>2015-11-01T09:16:40Z</time>
      </trkpt>
      <trkpt lat="50.15441" lon="3.67853">
        <ele>166.93</ele>
        <time>2015-11-01T09:16:50Z</time>
      </trkpt>
      <trkpt lat="50.15445" lon="3.67853">
        <ele>166.93</ele>
        <time>2015-11-01T09:16:51Z</time>
      </trkpt>
      <trkpt lat="50.15483" lon="3.67864">
        <ele>166.45</ele>
        <time>2015-11-01T09:17:00Z</time>
      </trkpt>
      <trkpt lat="50.15485" lon="3.67868">
        <ele>165.96</ele>
        <time>2015-11-01T09:17:01Z</time>
      </trkpt>
      <trkpt lat="50.15488" lon="3.67874">
        <ele>165.96</ele>
        <time>2015-11-01T09:17:02Z</time>
      </trkpt>
      <trkpt lat="50.1549" lon="3.67879">
        <ele>165.48</ele>
        <time>2015-11-01T09:17:03Z</time>
      </trkpt>
      <trkpt lat="50.15493" lon="3.67885">
        <ele>165</ele>
        <time>2015-11-01T09:17:04Z</time>
      </trkpt>
      <trkpt lat="50.15496" lon="3.67891">
        <ele>165</ele>
        <time>2015-11-01T09:17:05Z</time>
      </trkpt>
      <trkpt lat="50.15501" lon="3.67903">
        <ele>164.52</ele>
        <time>2015-11-01T09:17:07Z</time>
      </trkpt>
      <trkpt lat="50.15511" lon="3.67927">
        <ele>164.04</ele>
        <time>2015-11-01T09:17:11Z</time>
      </trkpt>
      <trkpt lat="50.15514" lon="3.67932">
        <ele>164.04</ele>
        <time>2015-11-01T09:17:12Z</time>
      </trkpt>
      <trkpt lat="50.15546" lon="3.6801">
        <ele>164.04</ele>
        <time>2015-11-01T09:17:26Z</time>
      </trkpt>
      <trkpt lat="50.15581" lon="3.68097">
        <ele>165.96</ele>
        <time>2015-11-01T09:17:42Z</time>
      </trkpt>
      <trkpt lat="50.15583" lon="3.68103">
        <ele>165.96</ele>
        <time>2015-11-01T09:17:43Z</time>
      </trkpt>
      <trkpt lat="50.15611" lon="3.68174">
        <ele>162.6</ele>
        <time>2015-11-01T09:17:53Z</time>
      </trkpt>
      <trkpt lat="50.15631" lon="3.68224">
        <ele>161.64</ele>
        <time>2015-11-01T09:18:00Z</time>
      </trkpt>
      <trkpt lat="50.15633" lon="3.6823">
        <ele>161.64</ele>
        <time>2015-11-01T09:18:01Z</time>
      </trkpt>
      <trkpt lat="50.15663" lon="3.68306">
        <ele>163.08</ele>
        <time>2015-11-01T09:18:15Z</time>
      </trkpt>
      <trkpt lat="50.15694" lon="3.68387">
        <ele>165.48</ele>
        <time>2015-11-01T09:18:30Z</time>
      </trkpt>
      <trkpt lat="50.15734" lon="3.68488">
        <ele>167.89</ele>
        <time>2015-11-01T09:18:48Z</time>
      </trkpt>
      <trkpt lat="50.15767" lon="3.68571">
        <ele>169.33</ele>
        <time>2015-11-01T09:19:04Z</time>
      </trkpt>
      <trkpt lat="50.158" lon="3.68653">
        <ele>169.33</ele>
        <time>2015-11-01T09:19:21Z</time>
      </trkpt>
      <trkpt lat="50.15826" lon="3.68717">
        <ele>169.81</ele>
        <time>2015-11-01T09:19:35Z</time>
      </trkpt>
      <trkpt lat="50.15855" lon="3.68791">
        <ele>169.81</ele>
        <time>2015-11-01T09:19:51Z</time>
      </trkpt>
      <trkpt lat="50.15865" lon="3.68818">
        <ele>168.85</ele>
        <time>2015-11-01T09:19:56Z</time>
      </trkpt>
      <trkpt lat="50.15897" lon="3.68898">
        <ele>165.48</ele>
        <time>2015-11-01T09:20:08Z</time>
      </trkpt>
      <trkpt lat="50.15906" lon="3.68921">
        <ele>164.52</ele>
        <time>2015-11-01T09:20:11Z</time>
      </trkpt>
      <trkpt lat="50.15951" lon="3.69031">
        <ele>162.12</ele>
        <time>2015-11-01T09:20:26Z</time>
      </trkpt>
      <trkpt lat="50.15968" lon="3.69075">
        <ele>163.56</ele>
        <time>2015-11-01T09:20:33Z</time>
      </trkpt>
      <trkpt lat="50.15976" lon="3.69098">
        <ele>164.52</ele>
        <time>2015-11-01T09:20:37Z</time>
      </trkpt>
      <trkpt lat="50.15978" lon="3.69103">
        <ele>164.52</ele>
        <time>2015-11-01T09:20:38Z</time>
      </trkpt>
      <trkpt lat="50.16001" lon="3.69162">
        <ele>167.89</ele>
        <time>2015-11-01T09:20:52Z</time>
      </trkpt>
      <trkpt lat="50.16019" lon="3.69203">
        <ele>169.33</ele>
        <time>2015-11-01T09:21:04Z</time>
      </trkpt>
      <trkpt lat="50.16041" lon="3.69257">
        <ele>171.25</ele>
        <time>2015-11-01T09:21:19Z</time>
      </trkpt>
      <trkpt lat="50.16062" lon="3.69311">
        <ele>172.21</ele>
        <time>2015-11-01T09:21:33Z</time>
      </trkpt>
      <trkpt lat="50.16086" lon="3.69371">
        <ele>172.69</ele>
        <time>2015-11-01T09:21:47Z</time>
      </trkpt>
      <trkpt lat="50.16105" lon="3.69421">
        <ele>172.69</ele>
        <time>2015-11-01T09:21:59Z</time>
      </trkpt>
      <trkpt lat="50.16124" lon="3.6947">
        <ele>172.69</ele>
        <time>2015-11-01T09:22:10Z</time>
      </trkpt>
      <trkpt lat="50.16155" lon="3.69546">
        <ele>169.81</ele>
        <time>2015-11-01T09:22:24Z</time>
      </trkpt>
      <trkpt lat="50.1617" lon="3.69585">
        <ele>168.37</ele>
        <time>2015-11-01T09:22:30Z</time>
      </trkpt>
      <trkpt lat="50.1621" lon="3.69685">
        <ele>166.45</ele>
        <time>2015-11-01T09:22:45Z</time>
      </trkpt>
      <trkpt lat="50.16241" lon="3.69765">
        <ele>164.04</ele>
        <time>2015-11-01T09:22:56Z</time>
      </trkpt>
      <trkpt lat="50.16244" lon="3.69773">
        <ele>164.04</ele>
        <time>2015-11-01T09:22:57Z</time>
      </trkpt>
      <trkpt lat="50.16267" lon="3.6983">
        <ele>163.56</ele>
        <time>2015-11-01T09:23:05Z</time>
      </trkpt>
      <trkpt lat="50.16269" lon="3.69836">
        <ele>163.56</ele>
        <time>2015-11-01T09:23:06Z</time>
      </trkpt>
      <trkpt lat="50.16294" lon="3.69905">
        <ele>165.48</ele>
        <time>2015-11-01T09:23:19Z</time>
      </trkpt>
      <trkpt lat="50.16319" lon="3.69969">
        <ele>166.45</ele>
        <time>2015-11-01T09:23:36Z</time>
      </trkpt>
      <trkpt lat="50.1634" lon="3.70023">
        <ele>166.93</ele>
        <time>2015-11-01T09:23:49Z</time>
      </trkpt>
      <trkpt lat="50.16367" lon="3.70091">
        <ele>166.45</ele>
        <time>2015-11-01T09:24:03Z</time>
      </trkpt>
      <trkpt lat="50.16388" lon="3.70145">
        <ele>166.45</ele>
        <time>2015-11-01T09:24:13Z</time>
      </trkpt>
      <trkpt lat="50.16392" lon="3.70156">
        <ele>165.48</ele>
        <time>2015-11-01T09:24:15Z</time>
      </trkpt>
      <trkpt lat="50.1643" lon="3.70252">
        <ele>163.56</ele>
        <time>2015-11-01T09:24:31Z</time>
      </trkpt>
      <trkpt lat="50.16464" lon="3.70337">
        <ele>162.6</ele>
        <time>2015-11-01T09:24:45Z</time>
      </trkpt>
      <trkpt lat="50.16502" lon="3.7043">
        <ele>160.68</ele>
        <time>2015-11-01T09:25:01Z</time>
      </trkpt>
      <trkpt lat="50.16529" lon="3.70498">
        <ele>158.75</ele>
        <time>2015-11-01T09:25:14Z</time>
      </trkpt>
      <trkpt lat="50.1653" lon="3.70502">
        <ele>158.75</ele>
        <time>2015-11-01T09:25:15Z</time>
      </trkpt>
      <trkpt lat="50.1653" lon="3.70505">
        <ele>158.75</ele>
        <time>2015-11-01T09:25:16Z</time>
      </trkpt>
      <trkpt lat="50.1653" lon="3.70508">
        <ele>158.75</ele>
        <time>2015-11-01T09:25:17Z</time>
      </trkpt>
      <trkpt lat="50.16531" lon="3.70511">
        <ele>158.75</ele>
        <time>2015-11-01T09:25:18Z</time>
      </trkpt>
      <trkpt lat="50.16535" lon="3.70518">
        <ele>158.27</ele>
        <time>2015-11-01T09:25:25Z</time>
      </trkpt>
      <trkpt lat="50.16537" lon="3.7052">
        <ele>158.27</ele>
        <time>2015-11-01T09:25:26Z</time>
      </trkpt>
      <trkpt lat="50.16538" lon="3.70523">
        <ele>158.27</ele>
        <time>2015-11-01T09:25:27Z</time>
      </trkpt>
      <trkpt lat="50.16545" lon="3.70546">
        <ele>158.27</ele>
        <time>2015-11-01T09:25:34Z</time>
      </trkpt>
      <trkpt lat="50.16544" lon="3.7055">
        <ele>158.27</ele>
        <time>2015-11-01T09:25:35Z</time>
      </trkpt>
      <trkpt lat="50.16542" lon="3.70554">
        <ele>158.27</ele>
        <time>2015-11-01T09:25:36Z</time>
      </trkpt>
      <trkpt lat="50.16505" lon="3.70609">
        <ele>154.91</ele>
        <time>2015-11-01T09:25:46Z</time>
      </trkpt>
      <trkpt lat="50.16456" lon="3.7068">
        <ele>154.43</ele>
        <time>2015-11-01T09:25:56Z</time>
      </trkpt>
      <trkpt lat="50.16451" lon="3.70687">
        <ele>154.43</ele>
        <time>2015-11-01T09:25:57Z</time>
      </trkpt>
      <trkpt lat="50.16411" lon="3.7075">
        <ele>155.87</ele>
        <time>2015-11-01T09:26:06Z</time>
      </trkpt>
      <trkpt lat="50.1637" lon="3.70818">
        <ele>159.24</ele>
        <time>2015-11-01T09:26:17Z</time>
      </trkpt>
      <trkpt lat="50.16363" lon="3.7083">
        <ele>159.24</ele>
        <time>2015-11-01T09:26:19Z</time>
      </trkpt>
      <trkpt lat="50.1636" lon="3.70835">
        <ele>159.24</ele>
        <time>2015-11-01T09:26:20Z</time>
      </trkpt>
      <trkpt lat="50.16356" lon="3.7084">
        <ele>159.24</ele>
        <time>2015-11-01T09:26:21Z</time>
      </trkpt>
      <trkpt lat="50.16326" lon="3.7089">
        <ele>158.27</ele>
        <time>2015-11-01T09:26:30Z</time>
      </trkpt>
      <trkpt lat="50.1629" lon="3.70946">
        <ele>154.43</ele>
        <time>2015-11-01T09:26:38Z</time>
      </trkpt>
      <trkpt lat="50.16231" lon="3.71038">
        <ele>152.03</ele>
        <time>2015-11-01T09:26:49Z</time>
      </trkpt>
      <trkpt lat="50.16166" lon="3.71141">
        <ele>152.03</ele>
        <time>2015-11-01T09:27:03Z</time>
      </trkpt>
      <trkpt lat="50.16158" lon="3.71153">
        <ele>153.47</ele>
        <time>2015-11-01T09:27:05Z</time>
      </trkpt>
      <trkpt lat="50.16155" lon="3.71158">
        <ele>153.47</ele>
        <time>2015-11-01T09:27:06Z</time>
      </trkpt>
      <trkpt lat="50.16151" lon="3.71163">
        <ele>153.95</ele>
        <time>2015-11-01T09:27:07Z</time>
      </trkpt>
      <trkpt lat="50.16148" lon="3.71169">
        <ele>153.95</ele>
        <time>2015-11-01T09:27:08Z</time>
      </trkpt>
      <trkpt lat="50.16145" lon="3.71174">
        <ele>153.95</ele>
        <time>2015-11-01T09:27:09Z</time>
      </trkpt>
      <trkpt lat="50.16098" lon="3.71247">
        <ele>152.51</ele>
        <time>2015-11-01T09:27:21Z</time>
      </trkpt>
      <trkpt lat="50.16084" lon="3.71268">
        <ele>152.03</ele>
        <time>2015-11-01T09:27:24Z</time>
      </trkpt>
      <trkpt lat="50.16079" lon="3.71275">
        <ele>152.03</ele>
        <time>2015-11-01T09:27:25Z</time>
      </trkpt>
      <trkpt lat="50.16075" lon="3.71283">
        <ele>152.03</ele>
        <time>2015-11-01T09:27:26Z</time>
      </trkpt>
      <trkpt lat="50.16055" lon="3.71316">
        <ele>153.47</ele>
        <time>2015-11-01T09:27:32Z</time>
      </trkpt>
      <trkpt lat="50.16026" lon="3.7136">
        <ele>156.83</ele>
        <time>2015-11-01T09:27:42Z</time>
      </trkpt>
      <trkpt lat="50.16016" lon="3.71368">
        <ele>157.31</ele>
        <time>2015-11-01T09:27:46Z</time>
      </trkpt>
      <trkpt lat="50.16013" lon="3.71368">
        <ele>157.31</ele>
        <time>2015-11-01T09:27:47Z</time>
      </trkpt>
      <trkpt lat="50.16011" lon="3.71367">
        <ele>157.31</ele>
        <time>2015-11-01T09:27:48Z</time>
      </trkpt>
      <trkpt lat="50.16008" lon="3.71363">
        <ele>157.31</ele>
        <time>2015-11-01T09:27:49Z</time>
      </trkpt>
      <trkpt lat="50.16006" lon="3.71361">
        <ele>157.31</ele>
        <time>2015-11-01T09:27:50Z</time>
      </trkpt>
      <trkpt lat="50.16004" lon="3.71356">
        <ele>157.79</ele>
        <time>2015-11-01T09:27:51Z</time>
      </trkpt>
      <trkpt lat="50.16002" lon="3.71351">
        <ele>157.31</ele>
        <time>2015-11-01T09:27:52Z</time>
      </trkpt>
      <trkpt lat="50.1599" lon="3.71326">
        <ele>155.87</ele>
        <time>2015-11-01T09:27:56Z</time>
      </trkpt>
      <trkpt lat="50.15944" lon="3.7123">
        <ele>156.83</ele>
        <time>2015-11-01T09:28:12Z</time>
      </trkpt>
      <trkpt lat="50.15903" lon="3.71151">
        <ele>160.2</ele>
        <time>2015-11-01T09:28:26Z</time>
      </trkpt>
      <trkpt lat="50.15879" lon="3.71101">
        <ele>161.64</ele>
        <time>2015-11-01T09:28:36Z</time>
      </trkpt>
      <trkpt lat="50.15846" lon="3.71032">
        <ele>162.6</ele>
        <time>2015-11-01T09:28:50Z</time>
      </trkpt>
      <trkpt lat="50.15805" lon="3.70951">
        <ele>162.6</ele>
        <time>2015-11-01T09:29:05Z</time>
      </trkpt>
      <trkpt lat="50.15773" lon="3.70876">
        <ele>163.08</ele>
        <time>2015-11-01T09:29:18Z</time>
      </trkpt>
      <trkpt lat="50.1575" lon="3.70829">
        <ele>164.52</ele>
        <time>2015-11-01T09:29:25Z</time>
      </trkpt>
      <trkpt lat="50.15744" lon="3.70816">
        <ele>164.52</ele>
        <time>2015-11-01T09:29:27Z</time>
      </trkpt>
      <trkpt lat="50.15723" lon="3.70776">
        <ele>165.96</ele>
        <time>2015-11-01T09:29:35Z</time>
      </trkpt>
      <trkpt lat="50.1572" lon="3.7077">
        <ele>166.45</ele>
        <time>2015-11-01T09:29:36Z</time>
      </trkpt>
      <trkpt lat="50.15694" lon="3.70716">
        <ele>167.89</ele>
        <time>2015-11-01T09:29:48Z</time>
      </trkpt>
      <trkpt lat="50.1567" lon="3.70661">
        <ele>168.85</ele>
        <time>2015-11-01T09:30:00Z</time>
      </trkpt>
      <trkpt lat="50.1563" lon="3.70583">
        <ele>169.33</ele>
        <time>2015-11-01T09:30:16Z</time>
      </trkpt>
      <trkpt lat="50.15593" lon="3.70507">
        <ele>169.33</ele>
        <time>2015-11-01T09:30:30Z</time>
      </trkpt>
      <trkpt lat="50.15589" lon="3.70501">
        <ele>169.33</ele>
        <time>2015-11-01T09:30:31Z</time>
      </trkpt>
      <trkpt lat="50.15586" lon="3.70496">
        <ele>169.33</ele>
        <time>2015-11-01T09:30:32Z</time>
      </trkpt>
      <trkpt lat="50.15583" lon="3.7049">
        <ele>169.33</ele>
        <time>2015-11-01T09:30:33Z</time>
      </trkpt>
      <trkpt lat="50.15581" lon="3.70484">
        <ele>169.33</ele>
        <time>2015-11-01T09:30:34Z</time>
      </trkpt>
      <trkpt lat="50.15578" lon="3.70478">
        <ele>169.33</ele>
        <time>2015-11-01T09:30:35Z</time>
      </trkpt>
      <trkpt lat="50.15575" lon="3.70472">
        <ele>169.33</ele>
        <time>2015-11-01T09:30:36Z</time>
      </trkpt>
      <trkpt lat="50.15572" lon="3.70465">
        <ele>169.33</ele>
        <time>2015-11-01T09:30:37Z</time>
      </trkpt>
      <trkpt lat="50.15557" lon="3.70432">
        <ele>167.89</ele>
        <time>2015-11-01T09:30:42Z</time>
      </trkpt>
      <trkpt lat="50.15509" lon="3.70329">
        <ele>167.41</ele>
        <time>2015-11-01T09:30:58Z</time>
      </trkpt>
      <trkpt lat="50.15467" lon="3.70246">
        <ele>167.41</ele>
        <time>2015-11-01T09:31:13Z</time>
      </trkpt>
      <trkpt lat="50.15424" lon="3.70159">
        <ele>169.81</ele>
        <time>2015-11-01T09:31:26Z</time>
      </trkpt>
      <trkpt lat="50.15409" lon="3.70129">
        <ele>170.29</ele>
        <time>2015-11-01T09:31:32Z</time>
      </trkpt>
      <trkpt lat="50.15405" lon="3.70127">
        <ele>170.77</ele>
        <time>2015-11-01T09:31:33Z</time>
      </trkpt>
      <trkpt lat="50.15402" lon="3.70125">
        <ele>170.77</ele>
        <time>2015-11-01T09:31:34Z</time>
      </trkpt>
      <trkpt lat="50.154" lon="3.70122">
        <ele>170.77</ele>
        <time>2015-11-01T09:31:35Z</time>
      </trkpt>
      <trkpt lat="50.15398" lon="3.7012">
        <ele>170.77</ele>
        <time>2015-11-01T09:31:36Z</time>
      </trkpt>
      <trkpt lat="50.15397" lon="3.70117">
        <ele>170.77</ele>
        <time>2015-11-01T09:31:37Z</time>
      </trkpt>
      <trkpt lat="50.15396" lon="3.7011">
        <ele>170.77</ele>
        <time>2015-11-01T09:31:42Z</time>
      </trkpt>
      <trkpt lat="50.15396" lon="3.70107">
        <ele>170.77</ele>
        <time>2015-11-01T09:31:43Z</time>
      </trkpt>
      <trkpt lat="50.15395" lon="3.70103">
        <ele>170.77</ele>
        <time>2015-11-01T09:31:44Z</time>
      </trkpt>
      <trkpt lat="50.15371" lon="3.70047">
        <ele>171.25</ele>
        <time>2015-11-01T09:31:55Z</time>
      </trkpt>
      <trkpt lat="50.15338" lon="3.69981">
        <ele>169.81</ele>
        <time>2015-11-01T09:32:05Z</time>
      </trkpt>
      <trkpt lat="50.15323" lon="3.6995">
        <ele>168.85</ele>
        <time>2015-11-01T09:32:09Z</time>
      </trkpt>
      <trkpt lat="50.1531" lon="3.69923">
        <ele>168.85</ele>
        <time>2015-11-01T09:32:13Z</time>
      </trkpt>
      <trkpt lat="50.15307" lon="3.69917">
        <ele>168.85</ele>
        <time>2015-11-01T09:32:14Z</time>
      </trkpt>
      <trkpt lat="50.15268" lon="3.69832">
        <ele>170.29</ele>
        <time>2015-11-01T09:32:28Z</time>
      </trkpt>
      <trkpt lat="50.15236" lon="3.6977">
        <ele>171.73</ele>
        <time>2015-11-01T09:32:39Z</time>
      </trkpt>
      <trkpt lat="50.15234" lon="3.69764">
        <ele>171.73</ele>
        <time>2015-11-01T09:32:40Z</time>
      </trkpt>
      <trkpt lat="50.15222" lon="3.69738">
        <ele>170.29</ele>
        <time>2015-11-01T09:32:44Z</time>
      </trkpt>
      <trkpt lat="50.1519" lon="3.69672">
        <ele>169.81</ele>
        <time>2015-11-01T09:32:54Z</time>
      </trkpt>
      <trkpt lat="50.15184" lon="3.6966">
        <ele>169.81</ele>
        <time>2015-11-01T09:32:56Z</time>
      </trkpt>
      <trkpt lat="50.1516" lon="3.69611">
        <ele>171.25</ele>
        <time>2015-11-01T09:33:04Z</time>
      </trkpt>
      <trkpt lat="50.1512" lon="3.69527">
        <ele>173.17</ele>
        <time>2015-11-01T09:33:20Z</time>
      </trkpt>
      <trkpt lat="50.15089" lon="3.69463">
        <ele>173.66</ele>
        <time>2015-11-01T09:33:33Z</time>
      </trkpt>
      <trkpt lat="50.15051" lon="3.69386">
        <ele>170.29</ele>
        <time>2015-11-01T09:33:45Z</time>
      </trkpt>
      <trkpt lat="50.15015" lon="3.69312">
        <ele>166.93</ele>
        <time>2015-11-01T09:33:53Z</time>
      </trkpt>
      <trkpt lat="50.14967" lon="3.69213">
        <ele>167.89</ele>
        <time>2015-11-01T09:34:05Z</time>
      </trkpt>
      <trkpt lat="50.14965" lon="3.69207">
        <ele>167.89</ele>
        <time>2015-11-01T09:34:06Z</time>
      </trkpt>
      <trkpt lat="50.14957" lon="3.69192">
        <ele>169.33</ele>
        <time>2015-11-01T09:34:09Z</time>
      </trkpt>
      <trkpt lat="50.14942" lon="3.69162">
        <ele>169.81</ele>
        <time>2015-11-01T09:34:15Z</time>
      </trkpt>
      <trkpt lat="50.14939" lon="3.69156">
        <ele>169.81</ele>
        <time>2015-11-01T09:34:16Z</time>
      </trkpt>
      <trkpt lat="50.14936" lon="3.6915">
        <ele>169.81</ele>
        <time>2015-11-01T09:34:17Z</time>
      </trkpt>
      <trkpt lat="50.14922" lon="3.69121">
        <ele>169.81</ele>
        <time>2015-11-01T09:34:22Z</time>
      </trkpt>
      <trkpt lat="50.14866" lon="3.69003">
        <ele>169.81</ele>
        <time>2015-11-01T09:34:40Z</time>
      </trkpt>
      <trkpt lat="50.14811" lon="3.68892">
        <ele>171.25</ele>
        <time>2015-11-01T09:35:00Z</time>
      </trkpt>
      <trkpt lat="50.14778" lon="3.68824">
        <ele>172.69</ele>
        <time>2015-11-01T09:35:16Z</time>
      </trkpt>
      <trkpt lat="50.14776" lon="3.68819">
        <ele>172.69</ele>
        <time>2015-11-01T09:35:17Z</time>
      </trkpt>
      <trkpt lat="50.14773" lon="3.68814">
        <ele>172.69</ele>
        <time>2015-11-01T09:35:18Z</time>
      </trkpt>
      <trkpt lat="50.14733" lon="3.6873">
        <ele>169.33</ele>
        <time>2015-11-01T09:35:30Z</time>
      </trkpt>
      <trkpt lat="50.14702" lon="3.68652">
        <ele>165.96</ele>
        <time>2015-11-01T09:35:38Z</time>
      </trkpt>
      <trkpt lat="50.14651" lon="3.68527">
        <ele>165</ele>
        <time>2015-11-01T09:35:52Z</time>
      </trkpt>
      <trkpt lat="50.14616" lon="3.68449">
        <ele>166.45</ele>
        <time>2015-11-01T09:36:02Z</time>
      </trkpt>
      <trkpt lat="50.14572" lon="3.68353">
        <ele>169.33</ele>
        <time>2015-11-01T09:36:16Z</time>
      </trkpt>
      <trkpt lat="50.1453" lon="3.68259">
        <ele>171.25</ele>
        <time>2015-11-01T09:36:31Z</time>
      </trkpt>
      <trkpt lat="50.14485" lon="3.68161">
        <ele>172.21</ele>
        <time>2015-11-01T09:36:47Z</time>
      </trkpt>
      <trkpt lat="50.14435" lon="3.68049">
        <ele>172.21</ele>
        <time>2015-11-01T09:37:04Z</time>
      </trkpt>
      <trkpt lat="50.1443" lon="3.68038">
        <ele>172.21</ele>
        <time>2015-11-01T09:37:06Z</time>
      </trkpt>
      <trkpt lat="50.14415" lon="3.68002">
        <ele>172.21</ele>
        <time>2015-11-01T09:37:12Z</time>
      </trkpt>
      <trkpt lat="50.144" lon="3.67974">
        <ele>172.69</ele>
        <time>2015-11-01T09:37:17Z</time>
      </trkpt>
      <trkpt lat="50.14354" lon="3.67869">
        <ele>172.69</ele>
        <time>2015-11-01T09:37:34Z</time>
      </trkpt>
      <trkpt lat="50.1432" lon="3.67789">
        <ele>169.33</ele>
        <time>2015-11-01T09:37:45Z</time>
      </trkpt>
      <trkpt lat="50.1427" lon="3.67674">
        <ele>166.45</ele>
        <time>2015-11-01T09:38:00Z</time>
      </trkpt>
      <trkpt lat="50.14254" lon="3.67644">
        <ele>165.96</ele>
        <time>2015-11-01T09:38:05Z</time>
      </trkpt>
      <trkpt lat="50.14252" lon="3.67645">
        <ele>165.96</ele>
        <time>2015-11-01T09:38:06Z</time>
      </trkpt>
      <trkpt lat="50.1425" lon="3.67647">
        <ele>165.48</ele>
        <time>2015-11-01T09:38:07Z</time>
      </trkpt>
      <trkpt lat="50.14248" lon="3.67651">
        <ele>165.48</ele>
        <time>2015-11-01T09:38:08Z</time>
      </trkpt>
      <trkpt lat="50.14247" lon="3.67655">
        <ele>165</ele>
        <time>2015-11-01T09:38:09Z</time>
      </trkpt>
      <trkpt lat="50.14247" lon="3.67719">
        <ele>165</ele>
        <time>2015-11-01T09:38:21Z</time>
      </trkpt>
      <trkpt lat="50.1425" lon="3.67769">
        <ele>165</ele>
        <time>2015-11-01T09:38:31Z</time>
      </trkpt>
      <trkpt lat="50.14254" lon="3.67784">
        <ele>166.45</ele>
        <time>2015-11-01T09:38:34Z</time>
      </trkpt>
      <trkpt lat="50.14255" lon="3.67793">
        <ele>166.45</ele>
        <time>2015-11-01T09:38:36Z</time>
      </trkpt>
      <trkpt lat="50.14255" lon="3.67797">
        <ele>166.45</ele>
        <time>2015-11-01T09:38:37Z</time>
      </trkpt>
      <trkpt lat="50.14256" lon="3.67802">
        <ele>166.45</ele>
        <time>2015-11-01T09:38:38Z</time>
      </trkpt>
      <trkpt lat="50.14256" lon="3.67806">
        <ele>166.45</ele>
        <time>2015-11-01T09:38:39Z</time>
      </trkpt>
      <trkpt lat="50.14256" lon="3.67811">
        <ele>166.45</ele>
        <time>2015-11-01T09:38:40Z</time>
      </trkpt>
      <trkpt lat="50.14259" lon="3.67866">
        <ele>167.89</ele>
        <time>2015-11-01T09:38:51Z</time>
      </trkpt>
      <trkpt lat="50.14262" lon="3.67917">
        <ele>168.85</ele>
        <time>2015-11-01T09:39:02Z</time>
      </trkpt>
      <trkpt lat="50.14265" lon="3.67957">
        <ele>169.33</ele>
        <time>2015-11-01T09:39:10Z</time>
      </trkpt>
      <trkpt lat="50.14267" lon="3.68002">
        <ele>169.33</ele>
        <time>2015-11-01T09:39:18Z</time>
      </trkpt>
      <trkpt lat="50.1427" lon="3.68024">
        <ele>169.33</ele>
        <time>2015-11-01T09:39:22Z</time>
      </trkpt>
      <trkpt lat="50.14271" lon="3.68029">
        <ele>169.33</ele>
        <time>2015-11-01T09:39:23Z</time>
      </trkpt>
      <trkpt lat="50.14276" lon="3.68096">
        <ele>169.81</ele>
        <time>2015-11-01T09:39:34Z</time>
      </trkpt>
      <trkpt lat="50.14281" lon="3.68154">
        <ele>169.81</ele>
        <time>2015-11-01T09:39:44Z</time>
      </trkpt>
      <trkpt lat="50.14281" lon="3.6817">
        <ele>169.81</ele>
        <time>2015-11-01T09:39:47Z</time>
      </trkpt>
      <trkpt lat="50.14282" lon="3.68175">
        <ele>169.81</ele>
        <time>2015-11-01T09:39:48Z</time>
      </trkpt>
      <trkpt lat="50.14283" lon="3.6818">
        <ele>169.81</ele>
        <time>2015-11-01T09:39:49Z</time>
      </trkpt>
      <trkpt lat="50.14284" lon="3.68239">
        <ele>170.77</ele>
        <time>2015-11-01T09:40:01Z</time>
      </trkpt>
      <trkpt lat="50.14286" lon="3.68286">
        <ele>171.73</ele>
        <time>2015-11-01T09:40:11Z</time>
      </trkpt>
      <trkpt lat="50.14289" lon="3.68324">
        <ele>171.73</ele>
        <time>2015-11-01T09:40:18Z</time>
      </trkpt>
      <trkpt lat="50.14289" lon="3.6833">
        <ele>171.73</ele>
        <time>2015-11-01T09:40:19Z</time>
      </trkpt>
      <trkpt lat="50.14289" lon="3.68335">
        <ele>171.73</ele>
        <time>2015-11-01T09:40:20Z</time>
      </trkpt>
      <trkpt lat="50.14292" lon="3.68394">
        <ele>172.21</ele>
        <time>2015-11-01T09:40:32Z</time>
      </trkpt>
      <trkpt lat="50.143" lon="3.68458">
        <ele>172.21</ele>
        <time>2015-11-01T09:40:43Z</time>
      </trkpt>
      <trkpt lat="50.14311" lon="3.68484">
        <ele>172.21</ele>
        <time>2015-11-01T09:40:48Z</time>
      </trkpt>
      <trkpt lat="50.14312" lon="3.6849">
        <ele>172.21</ele>
        <time>2015-11-01T09:40:49Z</time>
      </trkpt>
      <trkpt lat="50.14313" lon="3.68496">
        <ele>172.21</ele>
        <time>2015-11-01T09:40:50Z</time>
      </trkpt>
      <trkpt lat="50.14315" lon="3.68502">
        <ele>172.21</ele>
        <time>2015-11-01T09:40:51Z</time>
      </trkpt>
      <trkpt lat="50.14317" lon="3.68507">
        <ele>172.21</ele>
        <time>2015-11-01T09:40:52Z</time>
      </trkpt>
      <trkpt lat="50.14323" lon="3.68535">
        <ele>170.77</ele>
        <time>2015-11-01T09:41:00Z</time>
      </trkpt>
      <trkpt lat="50.14323" lon="3.68559">
        <ele>170.29</ele>
        <time>2015-11-01T09:41:07Z</time>
      </trkpt>
      <trkpt lat="50.14323" lon="3.68623">
        <ele>168.85</ele>
        <time>2015-11-01T09:41:20Z</time>
      </trkpt>
      <trkpt lat="50.14324" lon="3.68667">
        <ele>166.45</ele>
        <time>2015-11-01T09:41:25Z</time>
      </trkpt>
      <trkpt lat="50.14326" lon="3.68715">
        <ele>165.96</ele>
        <time>2015-11-01T09:41:30Z</time>
      </trkpt>
      <trkpt lat="50.14326" lon="3.68722">
        <ele>165.96</ele>
        <time>2015-11-01T09:41:31Z</time>
      </trkpt>
      <trkpt lat="50.14325" lon="3.6873">
        <ele>165.96</ele>
        <time>2015-11-01T09:41:32Z</time>
      </trkpt>
      <trkpt lat="50.14323" lon="3.68751">
        <ele>165.96</ele>
        <time>2015-11-01T09:41:36Z</time>
      </trkpt>
      <trkpt lat="50.14324" lon="3.68761">
        <ele>165.48</ele>
        <time>2015-11-01T09:41:39Z</time>
      </trkpt>
      <trkpt lat="50.14324" lon="3.68765">
        <ele>165.48</ele>
        <time>2015-11-01T09:41:40Z</time>
      </trkpt>
      <trkpt lat="50.14325" lon="3.68768">
        <ele>165.48</ele>
        <time>2015-11-01T09:41:41Z</time>
      </trkpt>
      <trkpt lat="50.14325" lon="3.68772">
        <ele>165.48</ele>
        <time>2015-11-01T09:41:42Z</time>
      </trkpt>
      <trkpt lat="50.14325" lon="3.68776">
        <ele>165.48</ele>
        <time>2015-11-01T09:41:43Z</time>
      </trkpt>
      <trkpt lat="50.14326" lon="3.68781">
        <ele>165.48</ele>
        <time>2015-11-01T09:41:44Z</time>
      </trkpt>
      <trkpt lat="50.14326" lon="3.68785">
        <ele>165.48</ele>
        <time>2015-11-01T09:41:45Z</time>
      </trkpt>
      <trkpt lat="50.14327" lon="3.68789">
        <ele>165.48</ele>
        <time>2015-11-01T09:41:46Z</time>
      </trkpt>
      <trkpt lat="50.14327" lon="3.68793">
        <ele>165.48</ele>
        <time>2015-11-01T09:41:47Z</time>
      </trkpt>
      <trkpt lat="50.14327" lon="3.68797">
        <ele>166.93</ele>
        <time>2015-11-01T09:41:48Z</time>
      </trkpt>
      <trkpt lat="50.14327" lon="3.688">
        <ele>166.93</ele>
        <time>2015-11-01T09:41:49Z</time>
      </trkpt>
      <trkpt lat="50.14327" lon="3.68804">
        <ele>166.93</ele>
        <time>2015-11-01T09:41:50Z</time>
      </trkpt>
      <trkpt lat="50.14328" lon="3.68862">
        <ele>170.29</ele>
        <time>2015-11-01T09:42:05Z</time>
      </trkpt>
      <trkpt lat="50.14325" lon="3.68896">
        <ele>171.73</ele>
        <time>2015-11-01T09:42:13Z</time>
      </trkpt>
      <trkpt lat="50.14326" lon="3.689">
        <ele>171.73</ele>
        <time>2015-11-01T09:42:14Z</time>
      </trkpt>
      <trkpt lat="50.14326" lon="3.68928">
        <ele>172.69</ele>
        <time>2015-11-01T09:42:20Z</time>
      </trkpt>
      <trkpt lat="50.14326" lon="3.68932">
        <ele>172.69</ele>
        <time>2015-11-01T09:42:21Z</time>
      </trkpt>
      <trkpt lat="50.14327" lon="3.68973">
        <ele>173.17</ele>
        <time>2015-11-01T09:42:31Z</time>
      </trkpt>
      <trkpt lat="50.14328" lon="3.68991">
        <ele>173.17</ele>
        <time>2015-11-01T09:42:35Z</time>
      </trkpt>
      <trkpt lat="50.14315" lon="3.69002">
        <ele>173.17</ele>
        <time>2015-11-01T09:42:44Z</time>
      </trkpt>
      <trkpt lat="50.14313" lon="3.69">
        <ele>173.17</ele>
        <time>2015-11-01T09:42:45Z</time>
      </trkpt>
      <trkpt lat="50.14305" lon="3.68989">
        <ele>173.17</ele>
        <time>2015-11-01T09:42:50Z</time>
      </trkpt>
      <trkpt lat="50.14302" lon="3.68988">
        <ele>173.17</ele>
        <time>2015-11-01T09:42:51Z</time>
      </trkpt>
      <trkpt lat="50.14299" lon="3.6899">
        <ele>173.17</ele>
        <time>2015-11-01T09:42:52Z</time>
      </trkpt>
      <trkpt lat="50.14298" lon="3.68993">
        <ele>172.21</ele>
        <time>2015-11-01T09:42:53Z</time>
      </trkpt>
      <trkpt lat="50.14297" lon="3.68997">
        <ele>172.21</ele>
        <time>2015-11-01T09:42:54Z</time>
      </trkpt>
      <trkpt lat="50.14297" lon="3.69001">
        <ele>172.21</ele>
        <time>2015-11-01T09:42:55Z</time>
      </trkpt>
      <trkpt lat="50.14291" lon="3.69066">
        <ele>171.25</ele>
        <time>2015-11-01T09:43:07Z</time>
      </trkpt>
      <trkpt lat="50.14289" lon="3.69073">
        <ele>171.25</ele>
        <time>2015-11-01T09:43:08Z</time>
      </trkpt>
      <trkpt lat="50.14282" lon="3.69125">
        <ele>170.29</ele>
        <time>2015-11-01T09:43:17Z</time>
      </trkpt>
      <trkpt lat="50.1428" lon="3.69132">
        <ele>170.29</ele>
        <time>2015-11-01T09:43:18Z</time>
      </trkpt>
      <trkpt lat="50.14274" lon="3.69152">
        <ele>169.33</ele>
        <time>2015-11-01T09:43:21Z</time>
      </trkpt>
      <trkpt lat="50.14259" lon="3.69192">
        <ele>168.85</ele>
        <time>2015-11-01T09:43:27Z</time>
      </trkpt>
      <trkpt lat="50.14248" lon="3.69223">
        <ele>168.37</ele>
        <time>2015-11-01T09:43:32Z</time>
      </trkpt>
      <trkpt lat="50.14245" lon="3.69236">
        <ele>167.89</ele>
        <time>2015-11-01T09:43:34Z</time>
      </trkpt>
      <trkpt lat="50.14236" lon="3.69279">
        <ele>166.45</ele>
        <time>2015-11-01T09:43:41Z</time>
      </trkpt>
      <trkpt lat="50.14236" lon="3.69286">
        <ele>166.45</ele>
        <time>2015-11-01T09:43:42Z</time>
      </trkpt>
      <trkpt lat="50.14235" lon="3.69291">
        <ele>166.45</ele>
        <time>2015-11-01T09:43:43Z</time>
      </trkpt>
      <trkpt lat="50.14231" lon="3.69324">
        <ele>167.89</ele>
        <time>2015-11-01T09:43:51Z</time>
      </trkpt>
      <trkpt lat="50.14223" lon="3.69389">
        <ele>168.85</ele>
        <time>2015-11-01T09:44:05Z</time>
      </trkpt>
      <trkpt lat="50.14218" lon="3.69445">
        <ele>168.85</ele>
        <time>2015-11-01T09:44:16Z</time>
      </trkpt>
      <trkpt lat="50.14218" lon="3.6948">
        <ele>169.33</ele>
        <time>2015-11-01T09:44:23Z</time>
      </trkpt>
      <trkpt lat="50.14218" lon="3.69484">
        <ele>169.33</ele>
        <time>2015-11-01T09:44:24Z</time>
      </trkpt>
      <trkpt lat="50.14218" lon="3.69488">
        <ele>169.33</ele>
        <time>2015-11-01T09:44:25Z</time>
      </trkpt>
      <trkpt lat="50.14216" lon="3.69523">
        <ele>169.33</ele>
        <time>2015-11-01T09:44:32Z</time>
      </trkpt>
      <trkpt lat="50.14215" lon="3.69528">
        <ele>169.33</ele>
        <time>2015-11-01T09:44:33Z</time>
      </trkpt>
      <trkpt lat="50.14216" lon="3.69585">
        <ele>169.33</ele>
        <time>2015-11-01T09:44:44Z</time>
      </trkpt>
      <trkpt lat="50.14224" lon="3.69632">
        <ele>169.81</ele>
        <time>2015-11-01T09:44:54Z</time>
      </trkpt>
      <trkpt lat="50.14243" lon="3.69679">
        <ele>170.29</ele>
        <time>2015-11-01T09:45:06Z</time>
      </trkpt>
      <trkpt lat="50.14248" lon="3.69726">
        <ele>170.29</ele>
        <time>2015-11-01T09:45:15Z</time>
      </trkpt>
      <trkpt lat="50.14251" lon="3.69778">
        <ele>169.33</ele>
        <time>2015-11-01T09:45:25Z</time>
      </trkpt>
      <trkpt lat="50.14254" lon="3.69822">
        <ele>167.41</ele>
        <time>2015-11-01T09:45:33Z</time>
      </trkpt>
      <trkpt lat="50.14254" lon="3.69829">
        <ele>167.41</ele>
        <time>2015-11-01T09:45:34Z</time>
      </trkpt>
      <trkpt lat="50.14254" lon="3.69836">
        <ele>166.93</ele>
        <time>2015-11-01T09:45:35Z</time>
      </trkpt>
      <trkpt lat="50.14254" lon="3.69844">
        <ele>166.45</ele>
        <time>2015-11-01T09:45:36Z</time>
      </trkpt>
      <trkpt lat="50.14256" lon="3.69852">
        <ele>166.45</ele>
        <time>2015-11-01T09:45:37Z</time>
      </trkpt>
      <trkpt lat="50.14257" lon="3.6986">
        <ele>166.45</ele>
        <time>2015-11-01T09:45:38Z</time>
      </trkpt>
      <trkpt lat="50.14258" lon="3.6987">
        <ele>165.48</ele>
        <time>2015-11-01T09:45:39Z</time>
      </trkpt>
      <trkpt lat="50.14259" lon="3.6988">
        <ele>165.48</ele>
        <time>2015-11-01T09:45:40Z</time>
      </trkpt>
      <trkpt lat="50.1426" lon="3.69889">
        <ele>165</ele>
        <time>2015-11-01T09:45:41Z</time>
      </trkpt>
      <trkpt lat="50.14262" lon="3.69899">
        <ele>164.52</ele>
        <time>2015-11-01T09:45:42Z</time>
      </trkpt>
      <trkpt lat="50.14263" lon="3.69909">
        <ele>163.56</ele>
        <time>2015-11-01T09:45:43Z</time>
      </trkpt>
      <trkpt lat="50.14264" lon="3.69962">
        <ele>161.64</ele>
        <time>2015-11-01T09:45:48Z</time>
      </trkpt>
      <trkpt lat="50.14264" lon="3.69974">
        <ele>161.16</ele>
        <time>2015-11-01T09:45:49Z</time>
      </trkpt>
      <trkpt lat="50.14264" lon="3.69984">
        <ele>160.68</ele>
        <time>2015-11-01T09:45:50Z</time>
      </trkpt>
      <trkpt lat="50.14264" lon="3.69994">
        <ele>160.68</ele>
        <time>2015-11-01T09:45:51Z</time>
      </trkpt>
      <trkpt lat="50.14264" lon="3.70003">
        <ele>160.68</ele>
        <time>2015-11-01T09:45:52Z</time>
      </trkpt>
      <trkpt lat="50.14263" lon="3.70011">
        <ele>159.72</ele>
        <time>2015-11-01T09:45:53Z</time>
      </trkpt>
      <trkpt lat="50.14261" lon="3.70018">
        <ele>159.72</ele>
        <time>2015-11-01T09:45:54Z</time>
      </trkpt>
      <trkpt lat="50.14258" lon="3.70025">
        <ele>159.72</ele>
        <time>2015-11-01T09:45:55Z</time>
      </trkpt>
      <trkpt lat="50.14255" lon="3.7003">
        <ele>159.72</ele>
        <time>2015-11-01T09:45:56Z</time>
      </trkpt>
      <trkpt lat="50.14252" lon="3.70036">
        <ele>159.72</ele>
        <time>2015-11-01T09:45:57Z</time>
      </trkpt>
      <trkpt lat="50.14249" lon="3.70042">
        <ele>159.24</ele>
        <time>2015-11-01T09:45:58Z</time>
      </trkpt>
      <trkpt lat="50.14242" lon="3.70055">
        <ele>158.27</ele>
        <time>2015-11-01T09:46:00Z</time>
      </trkpt>
      <trkpt lat="50.1424" lon="3.70062">
        <ele>158.27</ele>
        <time>2015-11-01T09:46:01Z</time>
      </trkpt>
      <trkpt lat="50.1422" lon="3.70104">
        <ele>158.27</ele>
        <time>2015-11-01T09:46:08Z</time>
      </trkpt>
      <trkpt lat="50.14218" lon="3.7011">
        <ele>158.27</ele>
        <time>2015-11-01T09:46:09Z</time>
      </trkpt>
      <trkpt lat="50.14207" lon="3.7015">
        <ele>158.75</ele>
        <time>2015-11-01T09:46:18Z</time>
      </trkpt>
      <trkpt lat="50.14202" lon="3.70155">
        <ele>158.75</ele>
        <time>2015-11-01T09:46:24Z</time>
      </trkpt>
      <trkpt lat="50.14201" lon="3.70157">
        <ele>158.75</ele>
        <time>2015-11-01T09:46:25Z</time>
      </trkpt>
      <trkpt lat="50.14199" lon="3.70159">
        <ele>158.75</ele>
        <time>2015-11-01T09:46:27Z</time>
      </trkpt>
      <trkpt lat="50.14197" lon="3.70161">
        <ele>158.75</ele>
        <time>2015-11-01T09:46:28Z</time>
      </trkpt>
      <trkpt lat="50.14196" lon="3.70162">
        <ele>158.75</ele>
        <time>2015-11-01T09:46:29Z</time>
      </trkpt>
      <trkpt lat="50.14194" lon="3.70164">
        <ele>158.75</ele>
        <time>2015-11-01T09:46:30Z</time>
      </trkpt>
      <trkpt lat="50.14191" lon="3.70166">
        <ele>158.75</ele>
        <time>2015-11-01T09:46:31Z</time>
      </trkpt>
      <trkpt lat="50.14189" lon="3.70168">
        <ele>158.75</ele>
        <time>2015-11-01T09:46:32Z</time>
      </trkpt>
      <trkpt lat="50.14186" lon="3.70169">
        <ele>158.75</ele>
        <time>2015-11-01T09:46:33Z</time>
      </trkpt>
      <trkpt lat="50.1416" lon="3.70192">
        <ele>156.83</ele>
        <time>2015-11-01T09:46:42Z</time>
      </trkpt>
      <trkpt lat="50.14136" lon="3.70241">
        <ele>155.39</ele>
        <time>2015-11-01T09:46:53Z</time>
      </trkpt>
      <trkpt lat="50.1412" lon="3.70276">
        <ele>154.43</ele>
        <time>2015-11-01T09:47:02Z</time>
      </trkpt>
      <trkpt lat="50.14109" lon="3.70298">
        <ele>153.47</ele>
        <time>2015-11-01T09:47:06Z</time>
      </trkpt>
      <trkpt lat="50.14089" lon="3.70319">
        <ele>152.03</ele>
        <time>2015-11-01T09:47:11Z</time>
      </trkpt>
      <trkpt lat="50.14065" lon="3.7035">
        <ele>151.06</ele>
        <time>2015-11-01T09:47:18Z</time>
      </trkpt>
      <trkpt lat="50.14055" lon="3.7036">
        <ele>150.58</ele>
        <time>2015-11-01T09:47:22Z</time>
      </trkpt>
      <trkpt lat="50.14035" lon="3.70403">
        <ele>149.62</ele>
        <time>2015-11-01T09:47:32Z</time>
      </trkpt>
      <trkpt lat="50.14031" lon="3.70411">
        <ele>149.14</ele>
        <time>2015-11-01T09:47:34Z</time>
      </trkpt>
      <trkpt lat="50.14025" lon="3.70438">
        <ele>149.14</ele>
        <time>2015-11-01T09:47:40Z</time>
      </trkpt>
      <trkpt lat="50.14012" lon="3.70496">
        <ele>147.7</ele>
        <time>2015-11-01T09:47:51Z</time>
      </trkpt>
      <trkpt lat="50.13991" lon="3.70548">
        <ele>146.26</ele>
        <time>2015-11-01T09:48:01Z</time>
      </trkpt>
      <trkpt lat="50.13986" lon="3.70563">
        <ele>145.78</ele>
        <time>2015-11-01T09:48:05Z</time>
      </trkpt>
      <trkpt lat="50.13978" lon="3.70582">
        <ele>145.3</ele>
        <time>2015-11-01T09:48:12Z</time>
      </trkpt>
      <trkpt lat="50.13973" lon="3.70587">
        <ele>144.82</ele>
        <time>2015-11-01T09:48:14Z</time>
      </trkpt>
      <trkpt lat="50.1395" lon="3.70616">
        <ele>143.37</ele>
        <time>2015-11-01T09:48:24Z</time>
      </trkpt>
      <trkpt lat="50.13948" lon="3.70666">
        <ele>142.89</ele>
        <time>2015-11-01T09:48:35Z</time>
      </trkpt>
      <trkpt lat="50.13953" lon="3.70715">
        <ele>141.93</ele>
        <time>2015-11-01T09:48:45Z</time>
      </trkpt>
      <trkpt lat="50.1395" lon="3.70725">
        <ele>141.93</ele>
        <time>2015-11-01T09:48:48Z</time>
      </trkpt>
      <trkpt lat="50.13943" lon="3.70728">
        <ele>141.93</ele>
        <time>2015-11-01T09:48:51Z</time>
      </trkpt>
      <trkpt lat="50.13912" lon="3.70704">
        <ele>141.93</ele>
        <time>2015-11-01T09:49:03Z</time>
      </trkpt>
      <trkpt lat="50.13886" lon="3.70677">
        <ele>143.37</ele>
        <time>2015-11-01T09:49:15Z</time>
      </trkpt>
      <trkpt lat="50.13846" lon="3.70639">
        <ele>144.82</ele>
        <time>2015-11-01T09:49:30Z</time>
      </trkpt>
      <trkpt lat="50.13803" lon="3.70604">
        <ele>145.78</ele>
        <time>2015-11-01T09:49:45Z</time>
      </trkpt>
      <trkpt lat="50.1376" lon="3.70565">
        <ele>144.82</ele>
        <time>2015-11-01T09:49:58Z</time>
      </trkpt>
      <trkpt lat="50.13753" lon="3.70558">
        <ele>144.34</ele>
        <time>2015-11-01T09:50:00Z</time>
      </trkpt>
      <trkpt lat="50.13749" lon="3.70554">
        <ele>144.34</ele>
        <time>2015-11-01T09:50:01Z</time>
      </trkpt>
      <trkpt lat="50.13746" lon="3.7055">
        <ele>144.34</ele>
        <time>2015-11-01T09:50:02Z</time>
      </trkpt>
      <trkpt lat="50.13742" lon="3.70549">
        <ele>143.85</ele>
        <time>2015-11-01T09:50:03Z</time>
      </trkpt>
      <trkpt lat="50.13738" lon="3.7055">
        <ele>143.85</ele>
        <time>2015-11-01T09:50:04Z</time>
      </trkpt>
      <trkpt lat="50.13736" lon="3.70553">
        <ele>143.85</ele>
        <time>2015-11-01T09:50:05Z</time>
      </trkpt>
      <trkpt lat="50.13735" lon="3.70557">
        <ele>143.85</ele>
        <time>2015-11-01T09:50:06Z</time>
      </trkpt>
      <trkpt lat="50.13735" lon="3.7056">
        <ele>143.85</ele>
        <time>2015-11-01T09:50:07Z</time>
      </trkpt>
      <trkpt lat="50.13735" lon="3.70563">
        <ele>143.85</ele>
        <time>2015-11-01T09:50:08Z</time>
      </trkpt>
      <trkpt lat="50.13736" lon="3.70567">
        <ele>143.85</ele>
        <time>2015-11-01T09:50:09Z</time>
      </trkpt>
      <trkpt lat="50.13736" lon="3.70571">
        <ele>143.85</ele>
        <time>2015-11-01T09:50:10Z</time>
      </trkpt>
      <trkpt lat="50.13748" lon="3.7063">
        <ele>144.82</ele>
        <time>2015-11-01T09:50:23Z</time>
      </trkpt>
      <trkpt lat="50.13775" lon="3.70686">
        <ele>144.82</ele>
        <time>2015-11-01T09:50:37Z</time>
      </trkpt>
      <trkpt lat="50.13799" lon="3.70754">
        <ele>145.78</ele>
        <time>2015-11-01T09:50:52Z</time>
      </trkpt>
      <trkpt lat="50.13793" lon="3.70825">
        <ele>145.78</ele>
        <time>2015-11-01T09:51:04Z</time>
      </trkpt>
      <trkpt lat="50.13792" lon="3.70832">
        <ele>145.78</ele>
        <time>2015-11-01T09:51:05Z</time>
      </trkpt>
      <trkpt lat="50.13792" lon="3.70839">
        <ele>145.78</ele>
        <time>2015-11-01T09:51:06Z</time>
      </trkpt>
      <trkpt lat="50.13792" lon="3.70845">
        <ele>145.78</ele>
        <time>2015-11-01T09:51:07Z</time>
      </trkpt>
      <trkpt lat="50.13793" lon="3.70852">
        <ele>145.78</ele>
        <time>2015-11-01T09:51:08Z</time>
      </trkpt>
      <trkpt lat="50.13794" lon="3.70858">
        <ele>145.78</ele>
        <time>2015-11-01T09:51:09Z</time>
      </trkpt>
      <trkpt lat="50.13795" lon="3.70864">
        <ele>145.78</ele>
        <time>2015-11-01T09:51:10Z</time>
      </trkpt>
      <trkpt lat="50.13835" lon="3.70979">
        <ele>142.41</ele>
        <time>2015-11-01T09:51:26Z</time>
      </trkpt>
      <trkpt lat="50.13866" lon="3.71056">
        <ele>139.53</ele>
        <time>2015-11-01T09:51:34Z</time>
      </trkpt>
      <trkpt lat="50.13918" lon="3.71159">
        <ele>138.09</ele>
        <time>2015-11-01T09:51:47Z</time>
      </trkpt>
      <trkpt lat="50.13919" lon="3.71165">
        <ele>138.09</ele>
        <time>2015-11-01T09:51:48Z</time>
      </trkpt>
      <trkpt lat="50.13918" lon="3.71172">
        <ele>137.61</ele>
        <time>2015-11-01T09:51:49Z</time>
      </trkpt>
      <trkpt lat="50.13915" lon="3.71177">
        <ele>137.61</ele>
        <time>2015-11-01T09:51:50Z</time>
      </trkpt>
      <trkpt lat="50.13912" lon="3.71182">
        <ele>137.61</ele>
        <time>2015-11-01T09:51:51Z</time>
      </trkpt>
      <trkpt lat="50.13909" lon="3.71187">
        <ele>137.61</ele>
        <time>2015-11-01T09:51:52Z</time>
      </trkpt>
      <trkpt lat="50.13906" lon="3.71193">
        <ele>137.13</ele>
        <time>2015-11-01T09:51:53Z</time>
      </trkpt>
      <trkpt lat="50.13872" lon="3.71267">
        <ele>137.13</ele>
        <time>2015-11-01T09:52:04Z</time>
      </trkpt>
      <trkpt lat="50.13834" lon="3.71377">
        <ele>136.16</ele>
        <time>2015-11-01T09:52:17Z</time>
      </trkpt>
      <trkpt lat="50.1382" lon="3.71438">
        <ele>135.68</ele>
        <time>2015-11-01T09:52:24Z</time>
      </trkpt>
      <trkpt lat="50.13818" lon="3.71446">
        <ele>135.68</ele>
        <time>2015-11-01T09:52:25Z</time>
      </trkpt>
      <trkpt lat="50.13802" lon="3.71516">
        <ele>135.2</ele>
        <time>2015-11-01T09:52:34Z</time>
      </trkpt>
      <trkpt lat="50.13788" lon="3.71604">
        <ele>135.2</ele>
        <time>2015-11-01T09:52:46Z</time>
      </trkpt>
      <trkpt lat="50.13775" lon="3.71676">
        <ele>137.61</ele>
        <time>2015-11-01T09:52:56Z</time>
      </trkpt>
      <trkpt lat="50.13775" lon="3.71683">
        <ele>135.2</ele>
        <time>2015-11-01T09:52:57Z</time>
      </trkpt>
      <trkpt lat="50.13776" lon="3.71688">
        <ele>135.2</ele>
        <time>2015-11-01T09:52:58Z</time>
      </trkpt>
      <trkpt lat="50.13778" lon="3.71691">
        <ele>135.2</ele>
        <time>2015-11-01T09:52:59Z</time>
      </trkpt>
      <trkpt lat="50.1378" lon="3.71693">
        <ele>135.2</ele>
        <time>2015-11-01T09:53:00Z</time>
      </trkpt>
      <trkpt lat="50.13782" lon="3.71692">
        <ele>135.2</ele>
        <time>2015-11-01T09:53:01Z</time>
      </trkpt>
      <trkpt lat="50.13784" lon="3.71691">
        <ele>135.2</ele>
        <time>2015-11-01T09:53:02Z</time>
      </trkpt>
      <trkpt lat="50.13786" lon="3.7169">
        <ele>135.2</ele>
        <time>2015-11-01T09:53:03Z</time>
      </trkpt>
      <trkpt lat="50.13789" lon="3.71691">
        <ele>135.2</ele>
        <time>2015-11-01T09:53:04Z</time>
      </trkpt>
      <trkpt lat="50.13793" lon="3.71691">
        <ele>135.2</ele>
        <time>2015-11-01T09:53:05Z</time>
      </trkpt>
      <trkpt lat="50.13796" lon="3.71691">
        <ele>135.2</ele>
        <time>2015-11-01T09:53:06Z</time>
      </trkpt>
      <trkpt lat="50.13804" lon="3.71689">
        <ele>135.2</ele>
        <time>2015-11-01T09:53:08Z</time>
      </trkpt>
      <trkpt lat="50.13808" lon="3.71688">
        <ele>135.2</ele>
        <time>2015-11-01T09:53:09Z</time>
      </trkpt>
      <trkpt lat="50.13812" lon="3.71688">
        <ele>135.2</ele>
        <time>2015-11-01T09:53:10Z</time>
      </trkpt>
      <trkpt lat="50.13833" lon="3.71689">
        <ele>135.2</ele>
        <time>2015-11-01T09:53:15Z</time>
      </trkpt>
      <trkpt lat="50.13841" lon="3.71692">
        <ele>135.2</ele>
        <time>2015-11-01T09:53:17Z</time>
      </trkpt>
      <trkpt lat="50.13863" lon="3.71699">
        <ele>135.2</ele>
        <time>2015-11-01T09:53:22Z</time>
      </trkpt>
      <trkpt lat="50.13867" lon="3.71701">
        <ele>135.2</ele>
        <time>2015-11-01T09:53:23Z</time>
      </trkpt>
      <trkpt lat="50.13875" lon="3.71705">
        <ele>135.2</ele>
        <time>2015-11-01T09:53:25Z</time>
      </trkpt>
      <trkpt lat="50.13895" lon="3.71719">
        <ele>135.2</ele>
        <time>2015-11-01T09:53:30Z</time>
      </trkpt>
      <trkpt lat="50.13922" lon="3.71754">
        <ele>135.2</ele>
        <time>2015-11-01T09:53:38Z</time>
      </trkpt>
      <trkpt lat="50.13951" lon="3.71812">
        <ele>135.2</ele>
        <time>2015-11-01T09:53:49Z</time>
      </trkpt>
      <trkpt lat="50.13954" lon="3.71818">
        <ele>135.2</ele>
        <time>2015-11-01T09:53:50Z</time>
      </trkpt>
      <trkpt lat="50.1397" lon="3.71841">
        <ele>135.2</ele>
        <time>2015-11-01T09:53:55Z</time>
      </trkpt>
      <trkpt lat="50.13977" lon="3.71848">
        <ele>135.2</ele>
        <time>2015-11-01T09:53:57Z</time>
      </trkpt>
      <trkpt lat="50.14028" lon="3.71898">
        <ele>135.2</ele>
        <time>2015-11-01T09:54:13Z</time>
      </trkpt>
      <trkpt lat="50.1403" lon="3.71916">
        <ele>136.16</ele>
        <time>2015-11-01T09:54:21Z</time>
      </trkpt>
      <trkpt lat="50.14029" lon="3.71917">
        <ele>136.16</ele>
        <time>2015-11-01T09:54:22Z</time>
      </trkpt>
      <trkpt lat="50.14026" lon="3.7193">
        <ele>138.09</ele>
        <time>2015-11-01T09:54:37Z</time>
      </trkpt>
      <trkpt lat="50.14024" lon="3.71933">
        <ele>136.64</ele>
        <time>2015-11-01T09:54:40Z</time>
      </trkpt>
      <trkpt lat="50.14023" lon="3.71938">
        <ele>136.16</ele>
        <time>2015-11-01T09:54:43Z</time>
      </trkpt>
      <trkpt lat="50.14023" lon="3.71941">
        <ele>136.16</ele>
        <time>2015-11-01T09:54:44Z</time>
      </trkpt>
      <trkpt lat="50.14025" lon="3.71944">
        <ele>136.16</ele>
        <time>2015-11-01T09:54:45Z</time>
      </trkpt>
      <trkpt lat="50.14027" lon="3.71947">
        <ele>136.16</ele>
        <time>2015-11-01T09:54:46Z</time>
      </trkpt>
      <trkpt lat="50.1403" lon="3.71949">
        <ele>135.68</ele>
        <time>2015-11-01T09:54:47Z</time>
      </trkpt>
      <trkpt lat="50.14033" lon="3.71952">
        <ele>135.68</ele>
        <time>2015-11-01T09:54:48Z</time>
      </trkpt>
      <trkpt lat="50.14051" lon="3.71968">
        <ele>134.72</ele>
        <time>2015-11-01T09:54:53Z</time>
      </trkpt>
      <trkpt lat="50.14126" lon="3.72025">
        <ele>134.72</ele>
        <time>2015-11-01T09:55:12Z</time>
      </trkpt>
      <trkpt lat="50.14162" lon="3.72058">
        <ele>134.72</ele>
        <time>2015-11-01T09:55:21Z</time>
      </trkpt>
      <trkpt lat="50.14237" lon="3.7211">
        <ele>134.72</ele>
        <time>2015-11-01T09:55:38Z</time>
      </trkpt>
      <trkpt lat="50.14261" lon="3.72118">
        <ele>134.72</ele>
        <time>2015-11-01T09:55:43Z</time>
      </trkpt>
      <trkpt lat="50.14346" lon="3.7214">
        <ele>134.72</ele>
        <time>2015-11-01T09:56:01Z</time>
      </trkpt>
      <trkpt lat="50.14435" lon="3.72142">
        <ele>134.72</ele>
        <time>2015-11-01T09:56:18Z</time>
      </trkpt>
      <trkpt lat="50.14529" lon="3.72149">
        <ele>134.72</ele>
        <time>2015-11-01T09:56:36Z</time>
      </trkpt>
      <trkpt lat="50.14614" lon="3.72172">
        <ele>134.72</ele>
        <time>2015-11-01T09:56:53Z</time>
      </trkpt>
      <trkpt lat="50.14699" lon="3.722">
        <ele>134.72</ele>
        <time>2015-11-01T09:57:10Z</time>
      </trkpt>
      <trkpt lat="50.14704" lon="3.72203">
        <ele>134.72</ele>
        <time>2015-11-01T09:57:11Z</time>
      </trkpt>
      <trkpt lat="50.14709" lon="3.72208">
        <ele>134.72</ele>
        <time>2015-11-01T09:57:12Z</time>
      </trkpt>
      <trkpt lat="50.14713" lon="3.72214">
        <ele>134.72</ele>
        <time>2015-11-01T09:57:13Z</time>
      </trkpt>
      <trkpt lat="50.14717" lon="3.72221">
        <ele>134.72</ele>
        <time>2015-11-01T09:57:14Z</time>
      </trkpt>
      <trkpt lat="50.1472" lon="3.72229">
        <ele>134.72</ele>
        <time>2015-11-01T09:57:15Z</time>
      </trkpt>
      <trkpt lat="50.14723" lon="3.72236">
        <ele>134.72</ele>
        <time>2015-11-01T09:57:16Z</time>
      </trkpt>
      <trkpt lat="50.14725" lon="3.72246">
        <ele>134.72</ele>
        <time>2015-11-01T09:57:17Z</time>
      </trkpt>
      <trkpt lat="50.1474" lon="3.72306">
        <ele>134.72</ele>
        <time>2015-11-01T09:57:24Z</time>
      </trkpt>
      <trkpt lat="50.14753" lon="3.72334">
        <ele>134.72</ele>
        <time>2015-11-01T09:57:28Z</time>
      </trkpt>
      <trkpt lat="50.14763" lon="3.72347">
        <ele>134.72</ele>
        <time>2015-11-01T09:57:30Z</time>
      </trkpt>
      <trkpt lat="50.14828" lon="3.72412">
        <ele>134.24</ele>
        <time>2015-11-01T09:57:42Z</time>
      </trkpt>
      <trkpt lat="50.14834" lon="3.72415">
        <ele>134.24</ele>
        <time>2015-11-01T09:57:43Z</time>
      </trkpt>
      <trkpt lat="50.1484" lon="3.72417">
        <ele>134.24</ele>
        <time>2015-11-01T09:57:44Z</time>
      </trkpt>
      <trkpt lat="50.14847" lon="3.72418">
        <ele>134.24</ele>
        <time>2015-11-01T09:57:45Z</time>
      </trkpt>
      <trkpt lat="50.14853" lon="3.72418">
        <ele>134.24</ele>
        <time>2015-11-01T09:57:46Z</time>
      </trkpt>
      <trkpt lat="50.1486" lon="3.72418">
        <ele>134.24</ele>
        <time>2015-11-01T09:57:47Z</time>
      </trkpt>
      <trkpt lat="50.14906" lon="3.72414">
        <ele>134.24</ele>
        <time>2015-11-01T09:57:54Z</time>
      </trkpt>
      <trkpt lat="50.14914" lon="3.72417">
        <ele>134.24</ele>
        <time>2015-11-01T09:57:55Z</time>
      </trkpt>
      <trkpt lat="50.1492" lon="3.7242">
        <ele>134.24</ele>
        <time>2015-11-01T09:57:56Z</time>
      </trkpt>
      <trkpt lat="50.14925" lon="3.72425">
        <ele>134.24</ele>
        <time>2015-11-01T09:57:57Z</time>
      </trkpt>
      <trkpt lat="50.14929" lon="3.7243">
        <ele>134.24</ele>
        <time>2015-11-01T09:57:58Z</time>
      </trkpt>
      <trkpt lat="50.14934" lon="3.72435">
        <ele>134.24</ele>
        <time>2015-11-01T09:57:59Z</time>
      </trkpt>
      <trkpt lat="50.14939" lon="3.72443">
        <ele>134.24</ele>
        <time>2015-11-01T09:58:00Z</time>
      </trkpt>
      <trkpt lat="50.15007" lon="3.72532">
        <ele>134.24</ele>
        <time>2015-11-01T09:58:14Z</time>
      </trkpt>
      <trkpt lat="50.15039" lon="3.72554">
        <ele>134.24</ele>
        <time>2015-11-01T09:58:19Z</time>
      </trkpt>
      <trkpt lat="50.15044" lon="3.72559">
        <ele>134.24</ele>
        <time>2015-11-01T09:58:20Z</time>
      </trkpt>
      <trkpt lat="50.15109" lon="3.72667">
        <ele>134.24</ele>
        <time>2015-11-01T09:58:34Z</time>
      </trkpt>
      <trkpt lat="50.15165" lon="3.72776">
        <ele>134.24</ele>
        <time>2015-11-01T09:58:48Z</time>
      </trkpt>
      <trkpt lat="50.15218" lon="3.72872">
        <ele>136.16</ele>
        <time>2015-11-01T09:59:03Z</time>
      </trkpt>
      <trkpt lat="50.1522" lon="3.72876">
        <ele>136.16</ele>
        <time>2015-11-01T09:59:04Z</time>
      </trkpt>
      <trkpt lat="50.1523" lon="3.72891">
        <ele>136.16</ele>
        <time>2015-11-01T09:59:08Z</time>
      </trkpt>
      <trkpt lat="50.15233" lon="3.72896">
        <ele>136.16</ele>
        <time>2015-11-01T09:59:09Z</time>
      </trkpt>
      <trkpt lat="50.15299" lon="3.72972">
        <ele>134.72</ele>
        <time>2015-11-01T09:59:25Z</time>
      </trkpt>
      <trkpt lat="50.15382" lon="3.73072">
        <ele>134.24</ele>
        <time>2015-11-01T09:59:46Z</time>
      </trkpt>
      <trkpt lat="50.15397" lon="3.73092">
        <ele>134.24</ele>
        <time>2015-11-01T09:59:50Z</time>
      </trkpt>
      <trkpt lat="50.15401" lon="3.73097">
        <ele>134.24</ele>
        <time>2015-11-01T09:59:51Z</time>
      </trkpt>
      <trkpt lat="50.15459" lon="3.7319">
        <ele>134.24</ele>
        <time>2015-11-01T10:00:07Z</time>
      </trkpt>
      <trkpt lat="50.15511" lon="3.73307">
        <ele>134.24</ele>
        <time>2015-11-01T10:00:24Z</time>
      </trkpt>
      <trkpt lat="50.15515" lon="3.73321">
        <ele>134.24</ele>
        <time>2015-11-01T10:00:26Z</time>
      </trkpt>
      <trkpt lat="50.15547" lon="3.73429">
        <ele>134.24</ele>
        <time>2015-11-01T10:00:41Z</time>
      </trkpt>
      <trkpt lat="50.15593" lon="3.7353">
        <ele>134.24</ele>
        <time>2015-11-01T10:00:57Z</time>
      </trkpt>
      <trkpt lat="50.15647" lon="3.73631">
        <ele>134.24</ele>
        <time>2015-11-01T10:01:14Z</time>
      </trkpt>
      <trkpt lat="50.15672" lon="3.73753">
        <ele>134.24</ele>
        <time>2015-11-01T10:01:31Z</time>
      </trkpt>
      <trkpt lat="50.15681" lon="3.73817">
        <ele>134.24</ele>
        <time>2015-11-01T10:01:39Z</time>
      </trkpt>
      <trkpt lat="50.15681" lon="3.73824">
        <ele>134.24</ele>
        <time>2015-11-01T10:01:40Z</time>
      </trkpt>
      <trkpt lat="50.15674" lon="3.73965">
        <ele>134.24</ele>
        <time>2015-11-01T10:01:58Z</time>
      </trkpt>
      <trkpt lat="50.15667" lon="3.74079">
        <ele>134.24</ele>
        <time>2015-11-01T10:02:14Z</time>
      </trkpt>
      <trkpt lat="50.15666" lon="3.74086">
        <ele>134.24</ele>
        <time>2015-11-01T10:02:15Z</time>
      </trkpt>
      <trkpt lat="50.15666" lon="3.74093">
        <ele>134.24</ele>
        <time>2015-11-01T10:02:16Z</time>
      </trkpt>
      <trkpt lat="50.15657" lon="3.74197">
        <ele>134.24</ele>
        <time>2015-11-01T10:02:31Z</time>
      </trkpt>
      <trkpt lat="50.15642" lon="3.74289">
        <ele>134.24</ele>
        <time>2015-11-01T10:02:47Z</time>
      </trkpt>
      <trkpt lat="50.15638" lon="3.74299">
        <ele>135.2</ele>
        <time>2015-11-01T10:02:50Z</time>
      </trkpt>
      <trkpt lat="50.15625" lon="3.74344">
        <ele>137.13</ele>
        <time>2015-11-01T10:03:05Z</time>
      </trkpt>
      <trkpt lat="50.15622" lon="3.74351">
        <ele>138.09</ele>
        <time>2015-11-01T10:03:08Z</time>
      </trkpt>
      <trkpt lat="50.15621" lon="3.74353">
        <ele>137.61</ele>
        <time>2015-11-01T10:03:09Z</time>
      </trkpt>
      <trkpt lat="50.1562" lon="3.74356">
        <ele>138.09</ele>
        <time>2015-11-01T10:03:10Z</time>
      </trkpt>
      <trkpt lat="50.15618" lon="3.74357">
        <ele>138.09</ele>
        <time>2015-11-01T10:03:11Z</time>
      </trkpt>
      <trkpt lat="50.15616" lon="3.74359">
        <ele>138.09</ele>
        <time>2015-11-01T10:03:12Z</time>
      </trkpt>
      <trkpt lat="50.15614" lon="3.7436">
        <ele>138.09</ele>
        <time>2015-11-01T10:03:13Z</time>
      </trkpt>
      <trkpt lat="50.15611" lon="3.7436">
        <ele>137.61</ele>
        <time>2015-11-01T10:03:14Z</time>
      </trkpt>
      <trkpt lat="50.1556" lon="3.74389">
        <ele>136.64</ele>
        <time>2015-11-01T10:03:27Z</time>
      </trkpt>
      <trkpt lat="50.15556" lon="3.74393">
        <ele>136.64</ele>
        <time>2015-11-01T10:03:28Z</time>
      </trkpt>
      <trkpt lat="50.1552" lon="3.74431">
        <ele>135.68</ele>
        <time>2015-11-01T10:03:37Z</time>
      </trkpt>
      <trkpt lat="50.15515" lon="3.74433">
        <ele>135.68</ele>
        <time>2015-11-01T10:03:38Z</time>
      </trkpt>
      <trkpt lat="50.1551" lon="3.74434">
        <ele>135.2</ele>
        <time>2015-11-01T10:03:39Z</time>
      </trkpt>
      <trkpt lat="50.15423" lon="3.74414">
        <ele>134.24</ele>
        <time>2015-11-01T10:03:55Z</time>
      </trkpt>
      <trkpt lat="50.15412" lon="3.7441">
        <ele>134.24</ele>
        <time>2015-11-01T10:03:57Z</time>
      </trkpt>
      <trkpt lat="50.15354" lon="3.74385">
        <ele>134.24</ele>
        <time>2015-11-01T10:04:09Z</time>
      </trkpt>
      <trkpt lat="50.15349" lon="3.74385">
        <ele>134.24</ele>
        <time>2015-11-01T10:04:10Z</time>
      </trkpt>
      <trkpt lat="50.15344" lon="3.74386">
        <ele>134.24</ele>
        <time>2015-11-01T10:04:11Z</time>
      </trkpt>
      <trkpt lat="50.15339" lon="3.74387">
        <ele>134.24</ele>
        <time>2015-11-01T10:04:12Z</time>
      </trkpt>
      <trkpt lat="50.15334" lon="3.7439">
        <ele>134.24</ele>
        <time>2015-11-01T10:04:13Z</time>
      </trkpt>
      <trkpt lat="50.1533" lon="3.74393">
        <ele>134.24</ele>
        <time>2015-11-01T10:04:14Z</time>
      </trkpt>
      <trkpt lat="50.15321" lon="3.744">
        <ele>134.24</ele>
        <time>2015-11-01T10:04:16Z</time>
      </trkpt>
      <trkpt lat="50.15249" lon="3.7446">
        <ele>133.76</ele>
        <time>2015-11-01T10:04:33Z</time>
      </trkpt>
      <trkpt lat="50.15178" lon="3.74531">
        <ele>133.76</ele>
        <time>2015-11-01T10:04:50Z</time>
      </trkpt>
      <trkpt lat="50.15109" lon="3.74597">
        <ele>133.76</ele>
        <time>2015-11-01T10:05:06Z</time>
      </trkpt>
      <trkpt lat="50.15072" lon="3.74621">
        <ele>133.76</ele>
        <time>2015-11-01T10:05:14Z</time>
      </trkpt>
      <trkpt lat="50.15007" lon="3.74692">
        <ele>133.76</ele>
        <time>2015-11-01T10:05:30Z</time>
      </trkpt>
      <trkpt lat="50.14931" lon="3.74774">
        <ele>133.76</ele>
        <time>2015-11-01T10:05:50Z</time>
      </trkpt>
      <trkpt lat="50.14891" lon="3.7482">
        <ele>133.76</ele>
        <time>2015-11-01T10:06:01Z</time>
      </trkpt>
      <trkpt lat="50.14888" lon="3.74826">
        <ele>133.76</ele>
        <time>2015-11-01T10:06:02Z</time>
      </trkpt>
      <trkpt lat="50.14886" lon="3.74831">
        <ele>133.76</ele>
        <time>2015-11-01T10:06:03Z</time>
      </trkpt>
      <trkpt lat="50.14884" lon="3.74837">
        <ele>133.76</ele>
        <time>2015-11-01T10:06:04Z</time>
      </trkpt>
      <trkpt lat="50.14883" lon="3.74844">
        <ele>133.76</ele>
        <time>2015-11-01T10:06:05Z</time>
      </trkpt>
      <trkpt lat="50.14882" lon="3.7485">
        <ele>133.76</ele>
        <time>2015-11-01T10:06:06Z</time>
      </trkpt>
      <trkpt lat="50.14882" lon="3.74857">
        <ele>133.76</ele>
        <time>2015-11-01T10:06:07Z</time>
      </trkpt>
      <trkpt lat="50.14882" lon="3.74998">
        <ele>133.76</ele>
        <time>2015-11-01T10:06:26Z</time>
      </trkpt>
      <trkpt lat="50.14876" lon="3.75122">
        <ele>133.76</ele>
        <time>2015-11-01T10:06:42Z</time>
      </trkpt>
      <trkpt lat="50.14861" lon="3.75242">
        <ele>133.76</ele>
        <time>2015-11-01T10:06:57Z</time>
      </trkpt>
      <trkpt lat="50.14859" lon="3.75264">
        <ele>133.76</ele>
        <time>2015-11-01T10:07:00Z</time>
      </trkpt>
      <trkpt lat="50.14851" lon="3.7542">
        <ele>133.76</ele>
        <time>2015-11-01T10:07:20Z</time>
      </trkpt>
      <trkpt lat="50.14843" lon="3.75481">
        <ele>133.76</ele>
        <time>2015-11-01T10:07:28Z</time>
      </trkpt>
      <trkpt lat="50.1484" lon="3.75489">
        <ele>133.76</ele>
        <time>2015-11-01T10:07:29Z</time>
      </trkpt>
      <trkpt lat="50.14838" lon="3.75495">
        <ele>133.76</ele>
        <time>2015-11-01T10:07:30Z</time>
      </trkpt>
      <trkpt lat="50.14834" lon="3.75501">
        <ele>133.76</ele>
        <time>2015-11-01T10:07:31Z</time>
      </trkpt>
      <trkpt lat="50.14828" lon="3.75506">
        <ele>133.76</ele>
        <time>2015-11-01T10:07:32Z</time>
      </trkpt>
      <trkpt lat="50.14825" lon="3.75507">
        <ele>133.76</ele>
        <time>2015-11-01T10:07:33Z</time>
      </trkpt>
      <trkpt lat="50.1482" lon="3.75508">
        <ele>133.76</ele>
        <time>2015-11-01T10:07:34Z</time>
      </trkpt>
      <trkpt lat="50.14814" lon="3.75509">
        <ele>133.76</ele>
        <time>2015-11-01T10:07:35Z</time>
      </trkpt>
      <trkpt lat="50.14808" lon="3.75509">
        <ele>133.76</ele>
        <time>2015-11-01T10:07:36Z</time>
      </trkpt>
      <trkpt lat="50.14732" lon="3.75518">
        <ele>136.64</ele>
        <time>2015-11-01T10:07:49Z</time>
      </trkpt>
      <trkpt lat="50.14659" lon="3.75556">
        <ele>139.53</ele>
        <time>2015-11-01T10:08:03Z</time>
      </trkpt>
      <trkpt lat="50.14639" lon="3.75571">
        <ele>140.49</ele>
        <time>2015-11-01T10:08:07Z</time>
      </trkpt>
      <trkpt lat="50.14555" lon="3.7563">
        <ele>143.37</ele>
        <time>2015-11-01T10:08:24Z</time>
      </trkpt>
      <trkpt lat="50.14474" lon="3.75673">
        <ele>145.78</ele>
        <time>2015-11-01T10:08:40Z</time>
      </trkpt>
      <trkpt lat="50.14373" lon="3.75719">
        <ele>148.18</ele>
        <time>2015-11-01T10:09:00Z</time>
      </trkpt>
      <trkpt lat="50.14295" lon="3.75739">
        <ele>151.06</ele>
        <time>2015-11-01T10:09:16Z</time>
      </trkpt>
      <trkpt lat="50.14218" lon="3.75774">
        <ele>152.51</ele>
        <time>2015-11-01T10:09:33Z</time>
      </trkpt>
      <trkpt lat="50.14156" lon="3.75859">
        <ele>153.47</ele>
        <time>2015-11-01T10:09:49Z</time>
      </trkpt>
      <trkpt lat="50.14106" lon="3.75968">
        <ele>155.39</ele>
        <time>2015-11-01T10:10:06Z</time>
      </trkpt>
      <trkpt lat="50.14051" lon="3.76072">
        <ele>157.79</ele>
        <time>2015-11-01T10:10:24Z</time>
      </trkpt>
      <trkpt lat="50.14003" lon="3.76165">
        <ele>159.24</ele>
        <time>2015-11-01T10:10:40Z</time>
      </trkpt>
      <trkpt lat="50.13959" lon="3.76256">
        <ele>160.68</ele>
        <time>2015-11-01T10:10:54Z</time>
      </trkpt>
      <trkpt lat="50.13902" lon="3.76347">
        <ele>161.64</ele>
        <time>2015-11-01T10:11:13Z</time>
      </trkpt>
      <trkpt lat="50.13856" lon="3.76372">
        <ele>162.12</ele>
        <time>2015-11-01T10:11:26Z</time>
      </trkpt>
      <trkpt lat="50.13823" lon="3.76372">
        <ele>160.68</ele>
        <time>2015-11-01T10:11:34Z</time>
      </trkpt>
      <trkpt lat="50.1381" lon="3.76367">
        <ele>160.2</ele>
        <time>2015-11-01T10:11:37Z</time>
      </trkpt>
      <trkpt lat="50.13806" lon="3.76366">
        <ele>160.2</ele>
        <time>2015-11-01T10:11:38Z</time>
      </trkpt>
      <trkpt lat="50.13802" lon="3.76363">
        <ele>160.2</ele>
        <time>2015-11-01T10:11:39Z</time>
      </trkpt>
      <trkpt lat="50.13766" lon="3.7633">
        <ele>158.75</ele>
        <time>2015-11-01T10:11:48Z</time>
      </trkpt>
      <trkpt lat="50.13762" lon="3.76325">
        <ele>158.75</ele>
        <time>2015-11-01T10:11:49Z</time>
      </trkpt>
      <trkpt lat="50.13746" lon="3.76307">
        <ele>158.27</ele>
        <time>2015-11-01T10:11:53Z</time>
      </trkpt>
      <trkpt lat="50.13743" lon="3.76304">
        <ele>158.27</ele>
        <time>2015-11-01T10:11:54Z</time>
      </trkpt>
      <trkpt lat="50.13739" lon="3.763">
        <ele>158.27</ele>
        <time>2015-11-01T10:11:55Z</time>
      </trkpt>
      <trkpt lat="50.13735" lon="3.76296">
        <ele>158.27</ele>
        <time>2015-11-01T10:11:56Z</time>
      </trkpt>
      <trkpt lat="50.13731" lon="3.76292">
        <ele>158.27</ele>
        <time>2015-11-01T10:11:57Z</time>
      </trkpt>
      <trkpt lat="50.13727" lon="3.76289">
        <ele>158.27</ele>
        <time>2015-11-01T10:11:58Z</time>
      </trkpt>
      <trkpt lat="50.1371" lon="3.7628">
        <ele>158.27</ele>
        <time>2015-11-01T10:12:02Z</time>
      </trkpt>
      <trkpt lat="50.13658" lon="3.76271">
        <ele>158.27</ele>
        <time>2015-11-01T10:12:14Z</time>
      </trkpt>
      <trkpt lat="50.13654" lon="3.76268">
        <ele>158.27</ele>
        <time>2015-11-01T10:12:15Z</time>
      </trkpt>
      <trkpt lat="50.13646" lon="3.76263">
        <ele>158.27</ele>
        <time>2015-11-01T10:12:17Z</time>
      </trkpt>
      <trkpt lat="50.13619" lon="3.76245">
        <ele>157.79</ele>
        <time>2015-11-01T10:12:23Z</time>
      </trkpt>
      <trkpt lat="50.1361" lon="3.76235">
        <ele>157.79</ele>
        <time>2015-11-01T10:12:25Z</time>
      </trkpt>
      <trkpt lat="50.13594" lon="3.76211">
        <ele>156.83</ele>
        <time>2015-11-01T10:12:29Z</time>
      </trkpt>
      <trkpt lat="50.13585" lon="3.76199">
        <ele>156.83</ele>
        <time>2015-11-01T10:12:31Z</time>
      </trkpt>
      <trkpt lat="50.13562" lon="3.76162">
        <ele>155.87</ele>
        <time>2015-11-01T10:12:37Z</time>
      </trkpt>
      <trkpt lat="50.13553" lon="3.76152">
        <ele>155.87</ele>
        <time>2015-11-01T10:12:39Z</time>
      </trkpt>
      <trkpt lat="50.13543" lon="3.76142">
        <ele>155.39</ele>
        <time>2015-11-01T10:12:41Z</time>
      </trkpt>
      <trkpt lat="50.1354" lon="3.76136">
        <ele>155.39</ele>
        <time>2015-11-01T10:12:42Z</time>
      </trkpt>
      <trkpt lat="50.13537" lon="3.76129">
        <ele>155.39</ele>
        <time>2015-11-01T10:12:43Z</time>
      </trkpt>
      <trkpt lat="50.13532" lon="3.76114">
        <ele>154.91</ele>
        <time>2015-11-01T10:12:45Z</time>
      </trkpt>
      <trkpt lat="50.13528" lon="3.76107">
        <ele>154.91</ele>
        <time>2015-11-01T10:12:46Z</time>
      </trkpt>
      <trkpt lat="50.13525" lon="3.76101">
        <ele>154.43</ele>
        <time>2015-11-01T10:12:47Z</time>
      </trkpt>
      <trkpt lat="50.13521" lon="3.76096">
        <ele>154.43</ele>
        <time>2015-11-01T10:12:48Z</time>
      </trkpt>
      <trkpt lat="50.13517" lon="3.7609">
        <ele>154.43</ele>
        <time>2015-11-01T10:12:49Z</time>
      </trkpt>
      <trkpt lat="50.13512" lon="3.76086">
        <ele>153.95</ele>
        <time>2015-11-01T10:12:50Z</time>
      </trkpt>
      <trkpt lat="50.13506" lon="3.76082">
        <ele>153.95</ele>
        <time>2015-11-01T10:12:51Z</time>
      </trkpt>
      <trkpt lat="50.13491" lon="3.7607">
        <ele>153.47</ele>
        <time>2015-11-01T10:12:54Z</time>
      </trkpt>
      <trkpt lat="50.13485" lon="3.76067">
        <ele>152.99</ele>
        <time>2015-11-01T10:12:55Z</time>
      </trkpt>
      <trkpt lat="50.13469" lon="3.76055">
        <ele>152.51</ele>
        <time>2015-11-01T10:12:58Z</time>
      </trkpt>
      <trkpt lat="50.13412" lon="3.76007">
        <ele>149.62</ele>
        <time>2015-11-01T10:13:08Z</time>
      </trkpt>
      <trkpt lat="50.13408" lon="3.75998">
        <ele>149.62</ele>
        <time>2015-11-01T10:13:09Z</time>
      </trkpt>
      <trkpt lat="50.13404" lon="3.75989">
        <ele>148.66</ele>
        <time>2015-11-01T10:13:10Z</time>
      </trkpt>
      <trkpt lat="50.13402" lon="3.7598">
        <ele>148.18</ele>
        <time>2015-11-01T10:13:11Z</time>
      </trkpt>
      <trkpt lat="50.134" lon="3.75969">
        <ele>147.7</ele>
        <time>2015-11-01T10:13:12Z</time>
      </trkpt>
      <trkpt lat="50.13401" lon="3.7596">
        <ele>147.7</ele>
        <time>2015-11-01T10:13:13Z</time>
      </trkpt>
      <trkpt lat="50.13404" lon="3.7595">
        <ele>147.22</ele>
        <time>2015-11-01T10:13:14Z</time>
      </trkpt>
      <trkpt lat="50.13408" lon="3.75944">
        <ele>146.74</ele>
        <time>2015-11-01T10:13:15Z</time>
      </trkpt>
      <trkpt lat="50.13413" lon="3.75938">
        <ele>146.74</ele>
        <time>2015-11-01T10:13:16Z</time>
      </trkpt>
      <trkpt lat="50.13417" lon="3.75931">
        <ele>146.74</ele>
        <time>2015-11-01T10:13:17Z</time>
      </trkpt>
      <trkpt lat="50.13421" lon="3.75922">
        <ele>146.74</ele>
        <time>2015-11-01T10:13:18Z</time>
      </trkpt>
      <trkpt lat="50.13425" lon="3.75914">
        <ele>146.74</ele>
        <time>2015-11-01T10:13:19Z</time>
      </trkpt>
      <trkpt lat="50.13481" lon="3.75788">
        <ele>144.34</ele>
        <time>2015-11-01T10:13:34Z</time>
      </trkpt>
      <trkpt lat="50.13486" lon="3.75781">
        <ele>143.85</ele>
        <time>2015-11-01T10:13:35Z</time>
      </trkpt>
      <trkpt lat="50.13492" lon="3.75774">
        <ele>143.85</ele>
        <time>2015-11-01T10:13:36Z</time>
      </trkpt>
      <trkpt lat="50.13554" lon="3.75683">
        <ele>143.37</ele>
        <time>2015-11-01T10:13:48Z</time>
      </trkpt>
      <trkpt lat="50.13568" lon="3.75666">
        <ele>144.82</ele>
        <time>2015-11-01T10:13:51Z</time>
      </trkpt>
      <trkpt lat="50.13611" lon="3.75608">
        <ele>145.78</ele>
        <time>2015-11-01T10:14:02Z</time>
      </trkpt>
      <trkpt lat="50.13674" lon="3.75511">
        <ele>143.85</ele>
        <time>2015-11-01T10:14:18Z</time>
      </trkpt>
      <trkpt lat="50.13716" lon="3.7544">
        <ele>143.37</ele>
        <time>2015-11-01T10:14:30Z</time>
      </trkpt>
      <trkpt lat="50.1372" lon="3.75434">
        <ele>142.89</ele>
        <time>2015-11-01T10:14:31Z</time>
      </trkpt>
      <trkpt lat="50.13724" lon="3.75427">
        <ele>142.89</ele>
        <time>2015-11-01T10:14:32Z</time>
      </trkpt>
      <trkpt lat="50.13727" lon="3.75419">
        <ele>142.41</ele>
        <time>2015-11-01T10:14:33Z</time>
      </trkpt>
      <trkpt lat="50.1373" lon="3.7541">
        <ele>141.93</ele>
        <time>2015-11-01T10:14:34Z</time>
      </trkpt>
      <trkpt lat="50.13733" lon="3.75401">
        <ele>141.93</ele>
        <time>2015-11-01T10:14:35Z</time>
      </trkpt>
      <trkpt lat="50.13735" lon="3.75391">
        <ele>141.45</ele>
        <time>2015-11-01T10:14:36Z</time>
      </trkpt>
      <trkpt lat="50.13753" lon="3.75244">
        <ele>139.53</ele>
        <time>2015-11-01T10:14:50Z</time>
      </trkpt>
      <trkpt lat="50.13771" lon="3.75139">
        <ele>139.53</ele>
        <time>2015-11-01T10:15:01Z</time>
      </trkpt>
      <trkpt lat="50.13773" lon="3.75129">
        <ele>139.53</ele>
        <time>2015-11-01T10:15:02Z</time>
      </trkpt>
      <trkpt lat="50.13776" lon="3.75121">
        <ele>139.53</ele>
        <time>2015-11-01T10:15:03Z</time>
      </trkpt>
      <trkpt lat="50.1378" lon="3.75112">
        <ele>139.53</ele>
        <time>2015-11-01T10:15:04Z</time>
      </trkpt>
      <trkpt lat="50.13784" lon="3.75104">
        <ele>139.05</ele>
        <time>2015-11-01T10:15:05Z</time>
      </trkpt>
      <trkpt lat="50.13789" lon="3.75096">
        <ele>139.05</ele>
        <time>2015-11-01T10:15:06Z</time>
      </trkpt>
      <trkpt lat="50.13794" lon="3.75089">
        <ele>139.05</ele>
        <time>2015-11-01T10:15:07Z</time>
      </trkpt>
      <trkpt lat="50.138" lon="3.75083">
        <ele>139.05</ele>
        <time>2015-11-01T10:15:08Z</time>
      </trkpt>
      <trkpt lat="50.13877" lon="3.74985">
        <ele>138.09</ele>
        <time>2015-11-01T10:15:23Z</time>
      </trkpt>
      <trkpt lat="50.13886" lon="3.74959">
        <ele>138.09</ele>
        <time>2015-11-01T10:15:26Z</time>
      </trkpt>
      <trkpt lat="50.13888" lon="3.7495">
        <ele>138.09</ele>
        <time>2015-11-01T10:15:27Z</time>
      </trkpt>
      <trkpt lat="50.13896" lon="3.74912">
        <ele>137.61</ele>
        <time>2015-11-01T10:15:31Z</time>
      </trkpt>
      <trkpt lat="50.13898" lon="3.74903">
        <ele>137.61</ele>
        <time>2015-11-01T10:15:32Z</time>
      </trkpt>
      <trkpt lat="50.13902" lon="3.74895">
        <ele>137.61</ele>
        <time>2015-11-01T10:15:33Z</time>
      </trkpt>
      <trkpt lat="50.13905" lon="3.74887">
        <ele>137.61</ele>
        <time>2015-11-01T10:15:34Z</time>
      </trkpt>
      <trkpt lat="50.1391" lon="3.74879">
        <ele>137.61</ele>
        <time>2015-11-01T10:15:35Z</time>
      </trkpt>
      <trkpt lat="50.13914" lon="3.74872">
        <ele>137.61</ele>
        <time>2015-11-01T10:15:36Z</time>
      </trkpt>
      <trkpt lat="50.13977" lon="3.74739">
        <ele>137.13</ele>
        <time>2015-11-01T10:15:53Z</time>
      </trkpt>
      <trkpt lat="50.14018" lon="3.74589">
        <ele>136.64</ele>
        <time>2015-11-01T10:16:11Z</time>
      </trkpt>
      <trkpt lat="50.14075" lon="3.74462">
        <ele>136.16</ele>
        <time>2015-11-01T10:16:29Z</time>
      </trkpt>
      <trkpt lat="50.14131" lon="3.74329">
        <ele>135.68</ele>
        <time>2015-11-01T10:16:47Z</time>
      </trkpt>
      <trkpt lat="50.14179" lon="3.7421">
        <ele>135.68</ele>
        <time>2015-11-01T10:17:03Z</time>
      </trkpt>
      <trkpt lat="50.14236" lon="3.74066">
        <ele>134.72</ele>
        <time>2015-11-01T10:17:22Z</time>
      </trkpt>
      <trkpt lat="50.14272" lon="3.7392">
        <ele>134.72</ele>
        <time>2015-11-01T10:17:41Z</time>
      </trkpt>
      <trkpt lat="50.14279" lon="3.73805">
        <ele>136.16</ele>
        <time>2015-11-01T10:17:56Z</time>
      </trkpt>
      <trkpt lat="50.1427" lon="3.73686">
        <ele>136.64</ele>
        <time>2015-11-01T10:18:11Z</time>
      </trkpt>
      <trkpt lat="50.14258" lon="3.73604">
        <ele>136.64</ele>
        <time>2015-11-01T10:18:22Z</time>
      </trkpt>
      <trkpt lat="50.14243" lon="3.73524">
        <ele>136.64</ele>
        <time>2015-11-01T10:18:33Z</time>
      </trkpt>
      <trkpt lat="50.1424" lon="3.73518">
        <ele>136.64</ele>
        <time>2015-11-01T10:18:34Z</time>
      </trkpt>
      <trkpt lat="50.14237" lon="3.73511">
        <ele>136.64</ele>
        <time>2015-11-01T10:18:35Z</time>
      </trkpt>
      <trkpt lat="50.14233" lon="3.73506">
        <ele>136.64</ele>
        <time>2015-11-01T10:18:36Z</time>
      </trkpt>
      <trkpt lat="50.1423" lon="3.73501">
        <ele>136.64</ele>
        <time>2015-11-01T10:18:37Z</time>
      </trkpt>
      <trkpt lat="50.14226" lon="3.73496">
        <ele>136.64</ele>
        <time>2015-11-01T10:18:38Z</time>
      </trkpt>
      <trkpt lat="50.14158" lon="3.7344">
        <ele>135.2</ele>
        <time>2015-11-01T10:18:53Z</time>
      </trkpt>
      <trkpt lat="50.14074" lon="3.7339">
        <ele>134.72</ele>
        <time>2015-11-01T10:19:10Z</time>
      </trkpt>
      <trkpt lat="50.14007" lon="3.73289">
        <ele>134.72</ele>
        <time>2015-11-01T10:19:29Z</time>
      </trkpt>
      <trkpt lat="50.13984" lon="3.73252">
        <ele>134.72</ele>
        <time>2015-11-01T10:19:36Z</time>
      </trkpt>
      <trkpt lat="50.13975" lon="3.73235">
        <ele>134.72</ele>
        <time>2015-11-01T10:19:39Z</time>
      </trkpt>
      <trkpt lat="50.13972" lon="3.7323">
        <ele>134.72</ele>
        <time>2015-11-01T10:19:40Z</time>
      </trkpt>
      <trkpt lat="50.13936" lon="3.73169">
        <ele>134.72</ele>
        <time>2015-11-01T10:19:52Z</time>
      </trkpt>
      <trkpt lat="50.13885" lon="3.73099">
        <ele>134.24</ele>
        <time>2015-11-01T10:20:06Z</time>
      </trkpt>
      <trkpt lat="50.13801" lon="3.72995">
        <ele>134.24</ele>
        <time>2015-11-01T10:20:26Z</time>
      </trkpt>
      <trkpt lat="50.13739" lon="3.72922">
        <ele>134.72</ele>
        <time>2015-11-01T10:20:41Z</time>
      </trkpt>
      <trkpt lat="50.13677" lon="3.72861">
        <ele>134.24</ele>
        <time>2015-11-01T10:20:56Z</time>
      </trkpt>
      <trkpt lat="50.13585" lon="3.72772">
        <ele>134.24</ele>
        <time>2015-11-01T10:21:17Z</time>
      </trkpt>
      <trkpt lat="50.13553" lon="3.7275">
        <ele>134.24</ele>
        <time>2015-11-01T10:21:24Z</time>
      </trkpt>
      <trkpt lat="50.13476" lon="3.72722">
        <ele>136.16</ele>
        <time>2015-11-01T10:21:40Z</time>
      </trkpt>
      <trkpt lat="50.13394" lon="3.72699">
        <ele>137.61</ele>
        <time>2015-11-01T10:21:57Z</time>
      </trkpt>
      <trkpt lat="50.1339" lon="3.72698">
        <ele>137.61</ele>
        <time>2015-11-01T10:21:58Z</time>
      </trkpt>
      <trkpt lat="50.13302" lon="3.72675">
        <ele>137.61</ele>
        <time>2015-11-01T10:22:14Z</time>
      </trkpt>
      <trkpt lat="50.13208" lon="3.72621">
        <ele>137.61</ele>
        <time>2015-11-01T10:22:32Z</time>
      </trkpt>
      <trkpt lat="50.13109" lon="3.72577">
        <ele>136.16</ele>
        <time>2015-11-01T10:22:50Z</time>
      </trkpt>
      <trkpt lat="50.13103" lon="3.72575">
        <ele>136.16</ele>
        <time>2015-11-01T10:22:51Z</time>
      </trkpt>
      <trkpt lat="50.13098" lon="3.72571">
        <ele>136.16</ele>
        <time>2015-11-01T10:22:52Z</time>
      </trkpt>
      <trkpt lat="50.13093" lon="3.72567">
        <ele>136.16</ele>
        <time>2015-11-01T10:22:53Z</time>
      </trkpt>
      <trkpt lat="50.13088" lon="3.72562">
        <ele>136.16</ele>
        <time>2015-11-01T10:22:54Z</time>
      </trkpt>
      <trkpt lat="50.13083" lon="3.72557">
        <ele>136.16</ele>
        <time>2015-11-01T10:22:55Z</time>
      </trkpt>
      <trkpt lat="50.13079" lon="3.72551">
        <ele>136.16</ele>
        <time>2015-11-01T10:22:56Z</time>
      </trkpt>
      <trkpt lat="50.13075" lon="3.72545">
        <ele>136.16</ele>
        <time>2015-11-01T10:22:57Z</time>
      </trkpt>
      <trkpt lat="50.13013" lon="3.72435">
        <ele>137.61</ele>
        <time>2015-11-01T10:23:14Z</time>
      </trkpt>
      <trkpt lat="50.12961" lon="3.72317">
        <ele>137.61</ele>
        <time>2015-11-01T10:23:30Z</time>
      </trkpt>
      <trkpt lat="50.12959" lon="3.72308">
        <ele>137.61</ele>
        <time>2015-11-01T10:23:31Z</time>
      </trkpt>
      <trkpt lat="50.12958" lon="3.72299">
        <ele>137.61</ele>
        <time>2015-11-01T10:23:32Z</time>
      </trkpt>
      <trkpt lat="50.12958" lon="3.72289">
        <ele>137.61</ele>
        <time>2015-11-01T10:23:33Z</time>
      </trkpt>
      <trkpt lat="50.12958" lon="3.7228">
        <ele>136.16</ele>
        <time>2015-11-01T10:23:34Z</time>
      </trkpt>
      <trkpt lat="50.12959" lon="3.7227">
        <ele>136.16</ele>
        <time>2015-11-01T10:23:35Z</time>
      </trkpt>
      <trkpt lat="50.12961" lon="3.72183">
        <ele>135.68</ele>
        <time>2015-11-01T10:23:44Z</time>
      </trkpt>
      <trkpt lat="50.1296" lon="3.72174">
        <ele>135.68</ele>
        <time>2015-11-01T10:23:45Z</time>
      </trkpt>
      <trkpt lat="50.12934" lon="3.72083">
        <ele>135.2</ele>
        <time>2015-11-01T10:23:56Z</time>
      </trkpt>
      <trkpt lat="50.12881" lon="3.71998">
        <ele>135.2</ele>
        <time>2015-11-01T10:24:09Z</time>
      </trkpt>
      <trkpt lat="50.12807" lon="3.71952">
        <ele>135.2</ele>
        <time>2015-11-01T10:24:23Z</time>
      </trkpt>
      <trkpt lat="50.12798" lon="3.71943">
        <ele>135.2</ele>
        <time>2015-11-01T10:24:25Z</time>
      </trkpt>
      <trkpt lat="50.12794" lon="3.71936">
        <ele>136.64</ele>
        <time>2015-11-01T10:24:26Z</time>
      </trkpt>
      <trkpt lat="50.12791" lon="3.7193">
        <ele>136.64</ele>
        <time>2015-11-01T10:24:27Z</time>
      </trkpt>
      <trkpt lat="50.12766" lon="3.71849">
        <ele>137.13</ele>
        <time>2015-11-01T10:24:38Z</time>
      </trkpt>
      <trkpt lat="50.12762" lon="3.71844">
        <ele>137.61</ele>
        <time>2015-11-01T10:24:39Z</time>
      </trkpt>
      <trkpt lat="50.12759" lon="3.71838">
        <ele>137.61</ele>
        <time>2015-11-01T10:24:40Z</time>
      </trkpt>
      <trkpt lat="50.12754" lon="3.71834">
        <ele>137.61</ele>
        <time>2015-11-01T10:24:41Z</time>
      </trkpt>
      <trkpt lat="50.12749" lon="3.7183">
        <ele>137.61</ele>
        <time>2015-11-01T10:24:42Z</time>
      </trkpt>
      <trkpt lat="50.12744" lon="3.71827">
        <ele>137.61</ele>
        <time>2015-11-01T10:24:43Z</time>
      </trkpt>
      <trkpt lat="50.12739" lon="3.71824">
        <ele>138.09</ele>
        <time>2015-11-01T10:24:44Z</time>
      </trkpt>
      <trkpt lat="50.12701" lon="3.71807">
        <ele>138.57</ele>
        <time>2015-11-01T10:24:51Z</time>
      </trkpt>
      <trkpt lat="50.12625" lon="3.71793">
        <ele>140.97</ele>
        <time>2015-11-01T10:25:05Z</time>
      </trkpt>
      <trkpt lat="50.12606" lon="3.71785">
        <ele>141.45</ele>
        <time>2015-11-01T10:25:09Z</time>
      </trkpt>
      <trkpt lat="50.12597" lon="3.71779">
        <ele>141.93</ele>
        <time>2015-11-01T10:25:11Z</time>
      </trkpt>
      <trkpt lat="50.12573" lon="3.7176">
        <ele>142.89</ele>
        <time>2015-11-01T10:25:17Z</time>
      </trkpt>
      <trkpt lat="50.12569" lon="3.71759">
        <ele>142.89</ele>
        <time>2015-11-01T10:25:18Z</time>
      </trkpt>
      <trkpt lat="50.12565" lon="3.71758">
        <ele>142.89</ele>
        <time>2015-11-01T10:25:19Z</time>
      </trkpt>
      <trkpt lat="50.12561" lon="3.71758">
        <ele>142.89</ele>
        <time>2015-11-01T10:25:20Z</time>
      </trkpt>
      <trkpt lat="50.12557" lon="3.71759">
        <ele>142.89</ele>
        <time>2015-11-01T10:25:21Z</time>
      </trkpt>
      <trkpt lat="50.12552" lon="3.7176">
        <ele>142.89</ele>
        <time>2015-11-01T10:25:22Z</time>
      </trkpt>
      <trkpt lat="50.12493" lon="3.71782">
        <ele>143.37</ele>
        <time>2015-11-01T10:25:36Z</time>
      </trkpt>
      <trkpt lat="50.12488" lon="3.71781">
        <ele>141.93</ele>
        <time>2015-11-01T10:25:37Z</time>
      </trkpt>
      <trkpt lat="50.12482" lon="3.71778">
        <ele>141.93</ele>
        <time>2015-11-01T10:25:38Z</time>
      </trkpt>
      <trkpt lat="50.12477" lon="3.71774">
        <ele>141.93</ele>
        <time>2015-11-01T10:25:39Z</time>
      </trkpt>
      <trkpt lat="50.12471" lon="3.7177">
        <ele>141.93</ele>
        <time>2015-11-01T10:25:40Z</time>
      </trkpt>
      <trkpt lat="50.12444" lon="3.71757">
        <ele>141.45</ele>
        <time>2015-11-01T10:25:45Z</time>
      </trkpt>
      <trkpt lat="50.12439" lon="3.71753">
        <ele>140.97</ele>
        <time>2015-11-01T10:25:46Z</time>
      </trkpt>
      <trkpt lat="50.12434" lon="3.71747">
        <ele>140.97</ele>
        <time>2015-11-01T10:25:47Z</time>
      </trkpt>
      <trkpt lat="50.12431" lon="3.7174">
        <ele>140.97</ele>
        <time>2015-11-01T10:25:48Z</time>
      </trkpt>
      <trkpt lat="50.12429" lon="3.71733">
        <ele>140.97</ele>
        <time>2015-11-01T10:25:49Z</time>
      </trkpt>
      <trkpt lat="50.12427" lon="3.71726">
        <ele>140.97</ele>
        <time>2015-11-01T10:25:50Z</time>
      </trkpt>
      <trkpt lat="50.12392" lon="3.71602">
        <ele>142.89</ele>
        <time>2015-11-01T10:26:08Z</time>
      </trkpt>
      <trkpt lat="50.12358" lon="3.71488">
        <ele>144.34</ele>
        <time>2015-11-01T10:26:24Z</time>
      </trkpt>
      <trkpt lat="50.12315" lon="3.71369">
        <ele>145.78</ele>
        <time>2015-11-01T10:26:41Z</time>
      </trkpt>
      <trkpt lat="50.12274" lon="3.71248">
        <ele>145.78</ele>
        <time>2015-11-01T10:26:59Z</time>
      </trkpt>
      <trkpt lat="50.12229" lon="3.71127">
        <ele>145.78</ele>
        <time>2015-11-01T10:27:16Z</time>
      </trkpt>
      <trkpt lat="50.12165" lon="3.71042">
        <ele>145.78</ele>
        <time>2015-11-01T10:27:32Z</time>
      </trkpt>
      <trkpt lat="50.12098" lon="3.70946">
        <ele>145.78</ele>
        <time>2015-11-01T10:27:52Z</time>
      </trkpt>
      <trkpt lat="50.12068" lon="3.70897">
        <ele>146.26</ele>
        <time>2015-11-01T10:28:01Z</time>
      </trkpt>
      <trkpt lat="50.1206" lon="3.70875">
        <ele>146.26</ele>
        <time>2015-11-01T10:28:04Z</time>
      </trkpt>
      <trkpt lat="50.12058" lon="3.70867">
        <ele>146.26</ele>
        <time>2015-11-01T10:28:05Z</time>
      </trkpt>
      <trkpt lat="50.12057" lon="3.70859">
        <ele>146.26</ele>
        <time>2015-11-01T10:28:06Z</time>
      </trkpt>
      <trkpt lat="50.12056" lon="3.70851">
        <ele>146.26</ele>
        <time>2015-11-01T10:28:07Z</time>
      </trkpt>
      <trkpt lat="50.12055" lon="3.70843">
        <ele>146.26</ele>
        <time>2015-11-01T10:28:08Z</time>
      </trkpt>
      <trkpt lat="50.1205" lon="3.70811">
        <ele>144.82</ele>
        <time>2015-11-01T10:28:12Z</time>
      </trkpt>
      <trkpt lat="50.12036" lon="3.70766">
        <ele>144.82</ele>
        <time>2015-11-01T10:28:18Z</time>
      </trkpt>
      <trkpt lat="50.12033" lon="3.70759">
        <ele>144.82</ele>
        <time>2015-11-01T10:28:19Z</time>
      </trkpt>
      <trkpt lat="50.11977" lon="3.70696">
        <ele>143.85</ele>
        <time>2015-11-01T10:28:32Z</time>
      </trkpt>
      <trkpt lat="50.11888" lon="3.70603">
        <ele>142.41</ele>
        <time>2015-11-01T10:28:51Z</time>
      </trkpt>
      <trkpt lat="50.11876" lon="3.70592">
        <ele>142.41</ele>
        <time>2015-11-01T10:28:54Z</time>
      </trkpt>
      <trkpt lat="50.11873" lon="3.70588">
        <ele>142.41</ele>
        <time>2015-11-01T10:28:55Z</time>
      </trkpt>
      <trkpt lat="50.1187" lon="3.70583">
        <ele>142.41</ele>
        <time>2015-11-01T10:28:56Z</time>
      </trkpt>
      <trkpt lat="50.11869" lon="3.70578">
        <ele>142.41</ele>
        <time>2015-11-01T10:28:57Z</time>
      </trkpt>
      <trkpt lat="50.11868" lon="3.70572">
        <ele>142.41</ele>
        <time>2015-11-01T10:28:58Z</time>
      </trkpt>
      <trkpt lat="50.11866" lon="3.70566">
        <ele>142.41</ele>
        <time>2015-11-01T10:28:59Z</time>
      </trkpt>
      <trkpt lat="50.11865" lon="3.70559">
        <ele>142.41</ele>
        <time>2015-11-01T10:29:00Z</time>
      </trkpt>
      <trkpt lat="50.11844" lon="3.70462">
        <ele>142.41</ele>
        <time>2015-11-01T10:29:14Z</time>
      </trkpt>
      <trkpt lat="50.11843" lon="3.70454">
        <ele>142.41</ele>
        <time>2015-11-01T10:29:15Z</time>
      </trkpt>
      <trkpt lat="50.11843" lon="3.70446">
        <ele>142.41</ele>
        <time>2015-11-01T10:29:16Z</time>
      </trkpt>
      <trkpt lat="50.11846" lon="3.70419">
        <ele>141.93</ele>
        <time>2015-11-01T10:29:19Z</time>
      </trkpt>
      <trkpt lat="50.1187" lon="3.70284">
        <ele>141.93</ele>
        <time>2015-11-01T10:29:36Z</time>
      </trkpt>
      <trkpt lat="50.11891" lon="3.70159">
        <ele>141.93</ele>
        <time>2015-11-01T10:29:49Z</time>
      </trkpt>
      <trkpt lat="50.11919" lon="3.69996">
        <ele>141.45</ele>
        <time>2015-11-01T10:30:07Z</time>
      </trkpt>
      <trkpt lat="50.11944" lon="3.69855">
        <ele>141.45</ele>
        <time>2015-11-01T10:30:21Z</time>
      </trkpt>
      <trkpt lat="50.1196" lon="3.69787">
        <ele>142.41</ele>
        <time>2015-11-01T10:30:27Z</time>
      </trkpt>
      <trkpt lat="50.11964" lon="3.69776">
        <ele>142.89</ele>
        <time>2015-11-01T10:30:28Z</time>
      </trkpt>
      <trkpt lat="50.11969" lon="3.69766">
        <ele>142.89</ele>
        <time>2015-11-01T10:30:29Z</time>
      </trkpt>
      <trkpt lat="50.12046" lon="3.69648">
        <ele>143.37</ele>
        <time>2015-11-01T10:30:43Z</time>
      </trkpt>
      <trkpt lat="50.12137" lon="3.69532">
        <ele>143.37</ele>
        <time>2015-11-01T10:30:59Z</time>
      </trkpt>
      <trkpt lat="50.12233" lon="3.69408">
        <ele>141.93</ele>
        <time>2015-11-01T10:31:15Z</time>
      </trkpt>
      <trkpt lat="50.12335" lon="3.69251">
        <ele>140.49</ele>
        <time>2015-11-01T10:31:34Z</time>
      </trkpt>
      <trkpt lat="50.12367" lon="3.69193">
        <ele>140.49</ele>
        <time>2015-11-01T10:31:41Z</time>
      </trkpt>
      <trkpt lat="50.12387" lon="3.69124">
        <ele>140.01</ele>
        <time>2015-11-01T10:31:48Z</time>
      </trkpt>
      <trkpt lat="50.124" lon="3.69099">
        <ele>140.01</ele>
        <time>2015-11-01T10:31:51Z</time>
      </trkpt>
      <trkpt lat="50.12452" lon="3.68989">
        <ele>139.53</ele>
        <time>2015-11-01T10:32:04Z</time>
      </trkpt>
      <trkpt lat="50.12456" lon="3.68982">
        <ele>139.53</ele>
        <time>2015-11-01T10:32:05Z</time>
      </trkpt>
      <trkpt lat="50.12506" lon="3.68907">
        <ele>139.53</ele>
        <time>2015-11-01T10:32:17Z</time>
      </trkpt>
      <trkpt lat="50.12511" lon="3.68902">
        <ele>139.53</ele>
        <time>2015-11-01T10:32:18Z</time>
      </trkpt>
      <trkpt lat="50.12596" lon="3.68842">
        <ele>139.05</ele>
        <time>2015-11-01T10:32:34Z</time>
      </trkpt>
      <trkpt lat="50.12655" lon="3.6881">
        <ele>140.49</ele>
        <time>2015-11-01T10:32:45Z</time>
      </trkpt>
      <trkpt lat="50.12658" lon="3.68807">
        <ele>140.49</ele>
        <time>2015-11-01T10:32:46Z</time>
      </trkpt>
      <trkpt lat="50.12669" lon="3.68794">
        <ele>140.97</ele>
        <time>2015-11-01T10:32:49Z</time>
      </trkpt>
      <trkpt lat="50.12672" lon="3.68789">
        <ele>140.97</ele>
        <time>2015-11-01T10:32:50Z</time>
      </trkpt>
      <trkpt lat="50.12706" lon="3.68746">
        <ele>139.53</ele>
        <time>2015-11-01T10:32:58Z</time>
      </trkpt>
      <trkpt lat="50.12771" lon="3.6866">
        <ele>138.57</ele>
        <time>2015-11-01T10:33:11Z</time>
      </trkpt>
      <trkpt lat="50.12775" lon="3.68654">
        <ele>138.57</ele>
        <time>2015-11-01T10:33:12Z</time>
      </trkpt>
      <trkpt lat="50.12779" lon="3.68648">
        <ele>138.57</ele>
        <time>2015-11-01T10:33:13Z</time>
      </trkpt>
      <trkpt lat="50.12783" lon="3.68642">
        <ele>138.57</ele>
        <time>2015-11-01T10:33:14Z</time>
      </trkpt>
      <trkpt lat="50.12787" lon="3.68636">
        <ele>138.57</ele>
        <time>2015-11-01T10:33:15Z</time>
      </trkpt>
      <trkpt lat="50.1279" lon="3.68632">
        <ele>138.57</ele>
        <time>2015-11-01T10:33:16Z</time>
      </trkpt>
      <trkpt lat="50.12794" lon="3.68617">
        <ele>138.57</ele>
        <time>2015-11-01T10:33:19Z</time>
      </trkpt>
      <trkpt lat="50.12791" lon="3.68613">
        <ele>138.57</ele>
        <time>2015-11-01T10:33:20Z</time>
      </trkpt>
      <trkpt lat="50.12788" lon="3.6861">
        <ele>138.57</ele>
        <time>2015-11-01T10:33:21Z</time>
      </trkpt>
      <trkpt lat="50.12785" lon="3.68605">
        <ele>138.57</ele>
        <time>2015-11-01T10:33:22Z</time>
      </trkpt>
      <trkpt lat="50.12781" lon="3.68599">
        <ele>138.57</ele>
        <time>2015-11-01T10:33:23Z</time>
      </trkpt>
      <trkpt lat="50.12743" lon="3.6853">
        <ele>138.57</ele>
        <time>2015-11-01T10:33:34Z</time>
      </trkpt>
      <trkpt lat="50.12737" lon="3.68516">
        <ele>138.57</ele>
        <time>2015-11-01T10:33:36Z</time>
      </trkpt>
      <trkpt lat="50.12736" lon="3.68508">
        <ele>138.57</ele>
        <time>2015-11-01T10:33:37Z</time>
      </trkpt>
      <trkpt lat="50.12738" lon="3.68499">
        <ele>138.57</ele>
        <time>2015-11-01T10:33:38Z</time>
      </trkpt>
      <trkpt lat="50.12742" lon="3.68494">
        <ele>138.57</ele>
        <time>2015-11-01T10:33:39Z</time>
      </trkpt>
      <trkpt lat="50.12746" lon="3.6849">
        <ele>138.57</ele>
        <time>2015-11-01T10:33:40Z</time>
      </trkpt>
      <trkpt lat="50.1275" lon="3.68486">
        <ele>138.57</ele>
        <time>2015-11-01T10:33:41Z</time>
      </trkpt>
      <trkpt lat="50.12794" lon="3.68451">
        <ele>139.53</ele>
        <time>2015-11-01T10:33:51Z</time>
      </trkpt>
      <trkpt lat="50.12797" lon="3.68445">
        <ele>139.53</ele>
        <time>2015-11-01T10:33:52Z</time>
      </trkpt>
      <trkpt lat="50.12798" lon="3.68437">
        <ele>140.01</ele>
        <time>2015-11-01T10:33:53Z</time>
      </trkpt>
      <trkpt lat="50.12797" lon="3.68429">
        <ele>140.01</ele>
        <time>2015-11-01T10:33:54Z</time>
      </trkpt>
      <trkpt lat="50.12795" lon="3.68423">
        <ele>140.01</ele>
        <time>2015-11-01T10:33:55Z</time>
      </trkpt>
      <trkpt lat="50.12793" lon="3.68416">
        <ele>140.01</ele>
        <time>2015-11-01T10:33:56Z</time>
      </trkpt>
      <trkpt lat="50.12791" lon="3.68409">
        <ele>140.01</ele>
        <time>2015-11-01T10:33:57Z</time>
      </trkpt>
      <trkpt lat="50.12752" lon="3.68296">
        <ele>140.01</ele>
        <time>2015-11-01T10:34:11Z</time>
      </trkpt>
      <trkpt lat="50.12696" lon="3.6815">
        <ele>139.05</ele>
        <time>2015-11-01T10:34:29Z</time>
      </trkpt>
      <trkpt lat="50.12664" lon="3.6808">
        <ele>138.57</ele>
        <time>2015-11-01T10:34:38Z</time>
      </trkpt>
      <trkpt lat="50.12661" lon="3.68071">
        <ele>138.57</ele>
        <time>2015-11-01T10:34:39Z</time>
      </trkpt>
      <trkpt lat="50.12603" lon="3.67955">
        <ele>138.09</ele>
        <time>2015-11-01T10:34:56Z</time>
      </trkpt>
      <trkpt lat="50.12585" lon="3.67917">
        <ele>138.09</ele>
        <time>2015-11-01T10:35:02Z</time>
      </trkpt>
      <trkpt lat="50.1258" lon="3.67911">
        <ele>138.09</ele>
        <time>2015-11-01T10:35:03Z</time>
      </trkpt>
      <trkpt lat="50.12576" lon="3.67906">
        <ele>138.09</ele>
        <time>2015-11-01T10:35:04Z</time>
      </trkpt>
      <trkpt lat="50.12571" lon="3.67902">
        <ele>138.09</ele>
        <time>2015-11-01T10:35:05Z</time>
      </trkpt>
      <trkpt lat="50.12567" lon="3.67898">
        <ele>138.09</ele>
        <time>2015-11-01T10:35:06Z</time>
      </trkpt>
      <trkpt lat="50.12538" lon="3.67876">
        <ele>138.09</ele>
        <time>2015-11-01T10:35:12Z</time>
      </trkpt>
      <trkpt lat="50.12534" lon="3.67872">
        <ele>138.09</ele>
        <time>2015-11-01T10:35:13Z</time>
      </trkpt>
      <trkpt lat="50.12485" lon="3.6782">
        <ele>137.13</ele>
        <time>2015-11-01T10:35:27Z</time>
      </trkpt>
      <trkpt lat="50.1248" lon="3.67813">
        <ele>137.13</ele>
        <time>2015-11-01T10:35:31Z</time>
      </trkpt>
      <trkpt lat="50.12478" lon="3.67812">
        <ele>137.13</ele>
        <time>2015-11-01T10:35:32Z</time>
      </trkpt>
      <trkpt lat="50.12476" lon="3.67813">
        <ele>137.13</ele>
        <time>2015-11-01T10:35:33Z</time>
      </trkpt>
      <trkpt lat="50.12475" lon="3.67814">
        <ele>137.13</ele>
        <time>2015-11-01T10:35:34Z</time>
      </trkpt>
      <trkpt lat="50.12474" lon="3.67816">
        <ele>137.13</ele>
        <time>2015-11-01T10:35:35Z</time>
      </trkpt>
      <trkpt lat="50.12471" lon="3.67818">
        <ele>137.13</ele>
        <time>2015-11-01T10:35:36Z</time>
      </trkpt>
      <trkpt lat="50.12469" lon="3.6782">
        <ele>137.13</ele>
        <time>2015-11-01T10:35:37Z</time>
      </trkpt>
      <trkpt lat="50.12467" lon="3.67821">
        <ele>137.13</ele>
        <time>2015-11-01T10:35:38Z</time>
      </trkpt>
      <trkpt lat="50.12465" lon="3.67825">
        <ele>136.64</ele>
        <time>2015-11-01T10:35:48Z</time>
      </trkpt>
      <trkpt lat="50.12465" lon="3.67825">
        <ele>136.64</ele>
        <time>2015-11-01T10:36:07Z</time>
      </trkpt>
    </trkseg>
  </trk>
</gpx>